<?xml version="1.0" encoding="UTF-8" standalone="no" ?>
<gpx xmlns="http://www.topografix.com/GPX/1/1" xmlns:xsi="http://www.w3.org/2001/XMLSchema-instance" xsi:schemaLocation="http://www.topografix.com/GPX/1/1 http://www.topografix.com/GPX/1/1/gpx.xsd" version="1.1" creator="VisuGPX - https://www.visugpx.com">
  <metadata>
    <name>pr5 randonnees desaignes</name>
    <desc><![CDATA[balisage et fermeture cloture combeneyre]]></desc>
  </metadata>
  <trk>
    <name><![CDATA[Tracé 10 nov. 2015 13:53:52]]></name>
    <trkseg>
      <trkpt lat="44.99407" lon="4.51621">
        <ele>404</ele>
        <time>2015-11-10T12:53:52Z</time>
      </trkpt>
      <trkpt lat="44.994" lon="4.51628">
        <ele>425</ele>
        <time>2015-11-10T12:54:47Z</time>
      </trkpt>
      <trkpt lat="44.99393" lon="4.51632">
        <ele>423</ele>
        <time>2015-11-10T12:54:54Z</time>
      </trkpt>
      <trkpt lat="44.99386" lon="4.51637">
        <ele>423</ele>
        <time>2015-11-10T12:55:00Z</time>
      </trkpt>
      <trkpt lat="44.99378" lon="4.51641">
        <ele>423</ele>
        <time>2015-11-10T12:55:06Z</time>
      </trkpt>
      <trkpt lat="44.99373" lon="4.51651">
        <ele>424</ele>
        <time>2015-11-10T12:55:13Z</time>
      </trkpt>
      <trkpt lat="44.99368" lon="4.51661">
        <ele>424</ele>
        <time>2015-11-10T12:55:18Z</time>
      </trkpt>
      <trkpt lat="44.99364" lon="4.51668">
        <ele>423</ele>
        <time>2015-11-10T12:55:22Z</time>
      </trkpt>
      <trkpt lat="44.99361" lon="4.51676">
        <ele>423</ele>
        <time>2015-11-10T12:55:26Z</time>
      </trkpt>
      <trkpt lat="44.99359" lon="4.51686">
        <ele>423</ele>
        <time>2015-11-10T12:55:32Z</time>
      </trkpt>
      <trkpt lat="44.99352" lon="4.51693">
        <ele>422</ele>
        <time>2015-11-10T12:55:42Z</time>
      </trkpt>
      <trkpt lat="44.99344" lon="4.51691">
        <ele>421</ele>
        <time>2015-11-10T12:55:48Z</time>
      </trkpt>
      <trkpt lat="44.99336" lon="4.51692">
        <ele>421</ele>
        <time>2015-11-10T12:55:54Z</time>
      </trkpt>
      <trkpt lat="44.9933" lon="4.51692">
        <ele>421</ele>
        <time>2015-11-10T12:55:58Z</time>
      </trkpt>
      <trkpt lat="44.99324" lon="4.51696">
        <ele>421</ele>
        <time>2015-11-10T12:56:03Z</time>
      </trkpt>
      <trkpt lat="44.99319" lon="4.51703">
        <ele>420</ele>
        <time>2015-11-10T12:56:08Z</time>
      </trkpt>
      <trkpt lat="44.99318" lon="4.51715">
        <ele>420</ele>
        <time>2015-11-10T12:56:15Z</time>
      </trkpt>
      <trkpt lat="44.99317" lon="4.51725">
        <ele>420</ele>
        <time>2015-11-10T12:56:19Z</time>
      </trkpt>
      <trkpt lat="44.99316" lon="4.51737">
        <ele>419</ele>
        <time>2015-11-10T12:56:26Z</time>
      </trkpt>
      <trkpt lat="44.99322" lon="4.51749">
        <ele>418</ele>
        <time>2015-11-10T12:56:31Z</time>
      </trkpt>
      <trkpt lat="44.99327" lon="4.51759">
        <ele>418</ele>
        <time>2015-11-10T12:56:37Z</time>
      </trkpt>
      <trkpt lat="44.99326" lon="4.5177">
        <ele>417</ele>
        <time>2015-11-10T12:56:44Z</time>
      </trkpt>
      <trkpt lat="44.99324" lon="4.5178">
        <ele>417</ele>
        <time>2015-11-10T12:56:47Z</time>
      </trkpt>
      <trkpt lat="44.99317" lon="4.51799">
        <ele>413</ele>
        <time>2015-11-10T12:56:51Z</time>
      </trkpt>
      <trkpt lat="44.99316" lon="4.51808">
        <ele>410</ele>
        <time>2015-11-10T12:56:54Z</time>
      </trkpt>
      <trkpt lat="44.99317" lon="4.51817">
        <ele>406</ele>
        <time>2015-11-10T12:57:00Z</time>
      </trkpt>
      <trkpt lat="44.99317" lon="4.5183">
        <ele>404</ele>
        <time>2015-11-10T12:57:06Z</time>
      </trkpt>
      <trkpt lat="44.99317" lon="4.5184">
        <ele>404</ele>
        <time>2015-11-10T12:57:11Z</time>
      </trkpt>
      <trkpt lat="44.99316" lon="4.51852">
        <ele>403</ele>
        <time>2015-11-10T12:57:17Z</time>
      </trkpt>
      <trkpt lat="44.99316" lon="4.51863">
        <ele>402</ele>
        <time>2015-11-10T12:57:27Z</time>
      </trkpt>
      <trkpt lat="44.99318" lon="4.51874">
        <ele>401</ele>
        <time>2015-11-10T12:57:33Z</time>
      </trkpt>
      <trkpt lat="44.99321" lon="4.51886">
        <ele>400</ele>
        <time>2015-11-10T12:57:40Z</time>
      </trkpt>
      <trkpt lat="44.9932" lon="4.51895">
        <ele>399</ele>
        <time>2015-11-10T12:57:44Z</time>
      </trkpt>
      <trkpt lat="44.99319" lon="4.51906">
        <ele>398</ele>
        <time>2015-11-10T12:57:50Z</time>
      </trkpt>
      <trkpt lat="44.99317" lon="4.51917">
        <ele>396</ele>
        <time>2015-11-10T12:57:56Z</time>
      </trkpt>
      <trkpt lat="44.99318" lon="4.51928">
        <ele>395</ele>
        <time>2015-11-10T12:58:02Z</time>
      </trkpt>
      <trkpt lat="44.99323" lon="4.51936">
        <ele>394</ele>
        <time>2015-11-10T12:58:07Z</time>
      </trkpt>
      <trkpt lat="44.99327" lon="4.5194">
        <ele>394</ele>
        <time>2015-11-10T12:58:10Z</time>
      </trkpt>
      <trkpt lat="44.99333" lon="4.51949">
        <ele>393</ele>
        <time>2015-11-10T12:58:17Z</time>
      </trkpt>
      <trkpt lat="44.99335" lon="4.5196">
        <ele>392</ele>
        <time>2015-11-10T12:58:23Z</time>
      </trkpt>
      <trkpt lat="44.99339" lon="4.51965">
        <ele>391</ele>
        <time>2015-11-10T12:58:38Z</time>
      </trkpt>
      <trkpt lat="44.99348" lon="4.51968">
        <ele>390</ele>
        <time>2015-11-10T12:58:43Z</time>
      </trkpt>
      <trkpt lat="44.99355" lon="4.51973">
        <ele>390</ele>
        <time>2015-11-10T12:58:48Z</time>
      </trkpt>
      <trkpt lat="44.99358" lon="4.51986">
        <ele>389</ele>
        <time>2015-11-10T12:58:52Z</time>
      </trkpt>
      <trkpt lat="44.99368" lon="4.52">
        <ele>388</ele>
        <time>2015-11-10T12:58:57Z</time>
      </trkpt>
      <trkpt lat="44.99372" lon="4.5201">
        <ele>387</ele>
        <time>2015-11-10T12:59:01Z</time>
      </trkpt>
      <trkpt lat="44.99376" lon="4.52021">
        <ele>385</ele>
        <time>2015-11-10T12:59:07Z</time>
      </trkpt>
      <trkpt lat="44.99374" lon="4.52035">
        <ele>384</ele>
        <time>2015-11-10T12:59:12Z</time>
      </trkpt>
      <trkpt lat="44.99376" lon="4.52044">
        <ele>383</ele>
        <time>2015-11-10T12:59:18Z</time>
      </trkpt>
      <trkpt lat="44.99379" lon="4.52055">
        <ele>381</ele>
        <time>2015-11-10T12:59:25Z</time>
      </trkpt>
      <trkpt lat="44.99381" lon="4.52067">
        <ele>380</ele>
        <time>2015-11-10T12:59:30Z</time>
      </trkpt>
      <trkpt lat="44.99384" lon="4.52076">
        <ele>380</ele>
        <time>2015-11-10T12:59:35Z</time>
      </trkpt>
      <trkpt lat="44.99387" lon="4.52087">
        <ele>378</ele>
        <time>2015-11-10T12:59:41Z</time>
      </trkpt>
      <trkpt lat="44.99387" lon="4.52094">
        <ele>377</ele>
        <time>2015-11-10T12:59:44Z</time>
      </trkpt>
      <trkpt lat="44.99388" lon="4.52107">
        <ele>376</ele>
        <time>2015-11-10T12:59:50Z</time>
      </trkpt>
      <trkpt lat="44.99393" lon="4.52116">
        <ele>375</ele>
        <time>2015-11-10T12:59:56Z</time>
      </trkpt>
      <trkpt lat="44.99396" lon="4.52124">
        <ele>374</ele>
        <time>2015-11-10T13:00:02Z</time>
      </trkpt>
      <trkpt lat="44.99399" lon="4.52135">
        <ele>373</ele>
        <time>2015-11-10T13:00:09Z</time>
      </trkpt>
      <trkpt lat="44.99401" lon="4.52145">
        <ele>372</ele>
        <time>2015-11-10T13:00:14Z</time>
      </trkpt>
      <trkpt lat="44.99402" lon="4.52155">
        <ele>372</ele>
        <time>2015-11-10T13:00:18Z</time>
      </trkpt>
      <trkpt lat="44.99406" lon="4.52165">
        <ele>371</ele>
        <time>2015-11-10T13:00:24Z</time>
      </trkpt>
      <trkpt lat="44.99406" lon="4.52176">
        <ele>369</ele>
        <time>2015-11-10T13:00:30Z</time>
      </trkpt>
      <trkpt lat="44.99407" lon="4.52187">
        <ele>368</ele>
        <time>2015-11-10T13:00:35Z</time>
      </trkpt>
      <trkpt lat="44.99408" lon="4.52197">
        <ele>367</ele>
        <time>2015-11-10T13:00:40Z</time>
      </trkpt>
      <trkpt lat="44.99409" lon="4.52208">
        <ele>365</ele>
        <time>2015-11-10T13:00:47Z</time>
      </trkpt>
      <trkpt lat="44.99409" lon="4.52217">
        <ele>365</ele>
        <time>2015-11-10T13:00:51Z</time>
      </trkpt>
      <trkpt lat="44.99409" lon="4.5223">
        <ele>363</ele>
        <time>2015-11-10T13:00:57Z</time>
      </trkpt>
      <trkpt lat="44.99411" lon="4.52239">
        <ele>362</ele>
        <time>2015-11-10T13:01:02Z</time>
      </trkpt>
      <trkpt lat="44.99412" lon="4.52251">
        <ele>361</ele>
        <time>2015-11-10T13:01:08Z</time>
      </trkpt>
      <trkpt lat="44.99413" lon="4.52263">
        <ele>359</ele>
        <time>2015-11-10T13:01:15Z</time>
      </trkpt>
      <trkpt lat="44.99411" lon="4.52274">
        <ele>357</ele>
        <time>2015-11-10T13:01:23Z</time>
      </trkpt>
      <trkpt lat="44.99409" lon="4.52281">
        <ele>357</ele>
        <time>2015-11-10T13:01:28Z</time>
      </trkpt>
      <trkpt lat="44.99406" lon="4.5229">
        <ele>356</ele>
        <time>2015-11-10T13:01:32Z</time>
      </trkpt>
      <trkpt lat="44.99408" lon="4.52308">
        <ele>358</ele>
        <time>2015-11-10T13:01:35Z</time>
      </trkpt>
      <trkpt lat="44.99408" lon="4.52321">
        <ele>358</ele>
        <time>2015-11-10T13:01:42Z</time>
      </trkpt>
      <trkpt lat="44.99405" lon="4.52334">
        <ele>358</ele>
        <time>2015-11-10T13:01:46Z</time>
      </trkpt>
      <trkpt lat="44.994" lon="4.52346">
        <ele>358</ele>
        <time>2015-11-10T13:01:50Z</time>
      </trkpt>
      <trkpt lat="44.99397" lon="4.52355">
        <ele>357</ele>
        <time>2015-11-10T13:01:54Z</time>
      </trkpt>
      <trkpt lat="44.99392" lon="4.52363">
        <ele>356</ele>
        <time>2015-11-10T13:01:58Z</time>
      </trkpt>
      <trkpt lat="44.99387" lon="4.52371">
        <ele>355</ele>
        <time>2015-11-10T13:02:02Z</time>
      </trkpt>
      <trkpt lat="44.99382" lon="4.52376">
        <ele>354</ele>
        <time>2015-11-10T13:02:06Z</time>
      </trkpt>
      <trkpt lat="44.99376" lon="4.52381">
        <ele>353</ele>
        <time>2015-11-10T13:02:12Z</time>
      </trkpt>
      <trkpt lat="44.9937" lon="4.52386">
        <ele>352</ele>
        <time>2015-11-10T13:02:16Z</time>
      </trkpt>
      <trkpt lat="44.99363" lon="4.52392">
        <ele>351</ele>
        <time>2015-11-10T13:02:20Z</time>
      </trkpt>
      <trkpt lat="44.99357" lon="4.52396">
        <ele>350</ele>
        <time>2015-11-10T13:02:24Z</time>
      </trkpt>
      <trkpt lat="44.99351" lon="4.52404">
        <ele>349</ele>
        <time>2015-11-10T13:02:30Z</time>
      </trkpt>
      <trkpt lat="44.99344" lon="4.52407">
        <ele>350</ele>
        <time>2015-11-10T13:02:34Z</time>
      </trkpt>
      <trkpt lat="44.99336" lon="4.52412">
        <ele>349</ele>
        <time>2015-11-10T13:02:40Z</time>
      </trkpt>
      <trkpt lat="44.9933" lon="4.5242">
        <ele>347</ele>
        <time>2015-11-10T13:02:48Z</time>
      </trkpt>
      <trkpt lat="44.99325" lon="4.52425">
        <ele>347</ele>
        <time>2015-11-10T13:02:53Z</time>
      </trkpt>
      <trkpt lat="44.9932" lon="4.52434">
        <ele>347</ele>
        <time>2015-11-10T13:02:58Z</time>
      </trkpt>
      <trkpt lat="44.99313" lon="4.52441">
        <ele>347</ele>
        <time>2015-11-10T13:03:04Z</time>
      </trkpt>
      <trkpt lat="44.99307" lon="4.52449">
        <ele>347</ele>
        <time>2015-11-10T13:03:10Z</time>
      </trkpt>
      <trkpt lat="44.99302" lon="4.52456">
        <ele>347</ele>
        <time>2015-11-10T13:03:16Z</time>
      </trkpt>
      <trkpt lat="44.99298" lon="4.52464">
        <ele>347</ele>
        <time>2015-11-10T13:03:22Z</time>
      </trkpt>
      <trkpt lat="44.99292" lon="4.52474">
        <ele>347</ele>
        <time>2015-11-10T13:03:28Z</time>
      </trkpt>
      <trkpt lat="44.99289" lon="4.5248">
        <ele>347</ele>
        <time>2015-11-10T13:03:31Z</time>
      </trkpt>
      <trkpt lat="44.99284" lon="4.52489">
        <ele>347</ele>
        <time>2015-11-10T13:03:35Z</time>
      </trkpt>
      <trkpt lat="44.99279" lon="4.52498">
        <ele>347</ele>
        <time>2015-11-10T13:03:40Z</time>
      </trkpt>
      <trkpt lat="44.99282" lon="4.52512">
        <ele>349</ele>
        <time>2015-11-10T13:03:44Z</time>
      </trkpt>
      <trkpt lat="44.99284" lon="4.52528">
        <ele>352</ele>
        <time>2015-11-10T13:03:48Z</time>
      </trkpt>
      <trkpt lat="44.99281" lon="4.52541">
        <ele>354</ele>
        <time>2015-11-10T13:03:52Z</time>
      </trkpt>
      <trkpt lat="44.99276" lon="4.52556">
        <ele>356</ele>
        <time>2015-11-10T13:03:56Z</time>
      </trkpt>
      <trkpt lat="44.99272" lon="4.52566">
        <ele>358</ele>
        <time>2015-11-10T13:03:59Z</time>
      </trkpt>
      <trkpt lat="44.99267" lon="4.52577">
        <ele>360</ele>
        <time>2015-11-10T13:04:04Z</time>
      </trkpt>
      <trkpt lat="44.9926" lon="4.52588">
        <ele>361</ele>
        <time>2015-11-10T13:04:08Z</time>
      </trkpt>
      <trkpt lat="44.99254" lon="4.52597">
        <ele>362</ele>
        <time>2015-11-10T13:04:13Z</time>
      </trkpt>
      <trkpt lat="44.99249" lon="4.52602">
        <ele>362</ele>
        <time>2015-11-10T13:04:17Z</time>
      </trkpt>
      <trkpt lat="44.99243" lon="4.5261">
        <ele>363</ele>
        <time>2015-11-10T13:04:23Z</time>
      </trkpt>
      <trkpt lat="44.99237" lon="4.52619">
        <ele>364</ele>
        <time>2015-11-10T13:04:28Z</time>
      </trkpt>
      <trkpt lat="44.99233" lon="4.52627">
        <ele>366</ele>
        <time>2015-11-10T13:04:34Z</time>
      </trkpt>
      <trkpt lat="44.99231" lon="4.52638">
        <ele>368</ele>
        <time>2015-11-10T13:04:38Z</time>
      </trkpt>
      <trkpt lat="44.99228" lon="4.52647">
        <ele>370</ele>
        <time>2015-11-10T13:04:44Z</time>
      </trkpt>
      <trkpt lat="44.99224" lon="4.52653">
        <ele>371</ele>
        <time>2015-11-10T13:04:48Z</time>
      </trkpt>
      <trkpt lat="44.99217" lon="4.52657">
        <ele>372</ele>
        <time>2015-11-10T13:04:52Z</time>
      </trkpt>
      <trkpt lat="44.9921" lon="4.52656">
        <ele>373</ele>
        <time>2015-11-10T13:04:58Z</time>
      </trkpt>
      <trkpt lat="44.99201" lon="4.52653">
        <ele>374</ele>
        <time>2015-11-10T13:05:03Z</time>
      </trkpt>
      <trkpt lat="44.99193" lon="4.52653">
        <ele>375</ele>
        <time>2015-11-10T13:05:08Z</time>
      </trkpt>
      <trkpt lat="44.99186" lon="4.52652">
        <ele>376</ele>
        <time>2015-11-10T13:05:16Z</time>
      </trkpt>
      <trkpt lat="44.99179" lon="4.52653">
        <ele>377</ele>
        <time>2015-11-10T13:05:21Z</time>
      </trkpt>
      <trkpt lat="44.99173" lon="4.52654">
        <ele>377</ele>
        <time>2015-11-10T13:05:26Z</time>
      </trkpt>
      <trkpt lat="44.99165" lon="4.52655">
        <ele>378</ele>
        <time>2015-11-10T13:05:32Z</time>
      </trkpt>
      <trkpt lat="44.99158" lon="4.52658">
        <ele>378</ele>
        <time>2015-11-10T13:05:37Z</time>
      </trkpt>
      <trkpt lat="44.99151" lon="4.52657">
        <ele>378</ele>
        <time>2015-11-10T13:05:41Z</time>
      </trkpt>
      <trkpt lat="44.99143" lon="4.52661">
        <ele>379</ele>
        <time>2015-11-10T13:05:46Z</time>
      </trkpt>
      <trkpt lat="44.99137" lon="4.52662">
        <ele>379</ele>
        <time>2015-11-10T13:05:50Z</time>
      </trkpt>
      <trkpt lat="44.99132" lon="4.52666">
        <ele>379</ele>
        <time>2015-11-10T13:05:53Z</time>
      </trkpt>
      <trkpt lat="44.99125" lon="4.52668">
        <ele>379</ele>
        <time>2015-11-10T13:05:57Z</time>
      </trkpt>
      <trkpt lat="44.99117" lon="4.52672">
        <ele>380</ele>
        <time>2015-11-10T13:06:02Z</time>
      </trkpt>
      <trkpt lat="44.99108" lon="4.52672">
        <ele>380</ele>
        <time>2015-11-10T13:06:08Z</time>
      </trkpt>
      <trkpt lat="44.99102" lon="4.52671">
        <ele>391</ele>
        <time>2015-11-10T13:06:18Z</time>
      </trkpt>
      <trkpt lat="44.99097" lon="4.52672">
        <ele>392</ele>
        <time>2015-11-10T13:06:22Z</time>
      </trkpt>
      <trkpt lat="44.99088" lon="4.52669">
        <ele>397</ele>
        <time>2015-11-10T13:06:27Z</time>
      </trkpt>
      <trkpt lat="44.9908" lon="4.52671">
        <ele>399</ele>
        <time>2015-11-10T13:06:30Z</time>
      </trkpt>
      <trkpt lat="44.99074" lon="4.52668">
        <ele>405</ele>
        <time>2015-11-10T13:06:35Z</time>
      </trkpt>
      <trkpt lat="44.99067" lon="4.52672">
        <ele>409</ele>
        <time>2015-11-10T13:06:40Z</time>
      </trkpt>
      <trkpt lat="44.99059" lon="4.52672">
        <ele>411</ele>
        <time>2015-11-10T13:06:48Z</time>
      </trkpt>
      <trkpt lat="44.99051" lon="4.52675">
        <ele>413</ele>
        <time>2015-11-10T13:06:57Z</time>
      </trkpt>
      <trkpt lat="44.99042" lon="4.52674">
        <ele>413</ele>
        <time>2015-11-10T13:07:02Z</time>
      </trkpt>
      <trkpt lat="44.99035" lon="4.52671">
        <ele>414</ele>
        <time>2015-11-10T13:07:07Z</time>
      </trkpt>
      <trkpt lat="44.9903" lon="4.52669">
        <ele>415</ele>
        <time>2015-11-10T13:07:12Z</time>
      </trkpt>
      <trkpt lat="44.99024" lon="4.52674">
        <ele>416</ele>
        <time>2015-11-10T13:07:16Z</time>
      </trkpt>
      <trkpt lat="44.99017" lon="4.52685">
        <ele>416</ele>
        <time>2015-11-10T13:07:20Z</time>
      </trkpt>
      <trkpt lat="44.99011" lon="4.52688">
        <ele>416</ele>
        <time>2015-11-10T13:07:24Z</time>
      </trkpt>
      <trkpt lat="44.99004" lon="4.52691">
        <ele>416</ele>
        <time>2015-11-10T13:07:29Z</time>
      </trkpt>
      <trkpt lat="44.98998" lon="4.52686">
        <ele>416</ele>
        <time>2015-11-10T13:07:34Z</time>
      </trkpt>
      <trkpt lat="44.9899" lon="4.52686">
        <ele>416</ele>
        <time>2015-11-10T13:07:38Z</time>
      </trkpt>
      <trkpt lat="44.98982" lon="4.5269">
        <ele>417</ele>
        <time>2015-11-10T13:07:42Z</time>
      </trkpt>
      <trkpt lat="44.98975" lon="4.52691">
        <ele>417</ele>
        <time>2015-11-10T13:07:46Z</time>
      </trkpt>
      <trkpt lat="44.98967" lon="4.52693">
        <ele>417</ele>
        <time>2015-11-10T13:07:50Z</time>
      </trkpt>
      <trkpt lat="44.98958" lon="4.52696">
        <ele>417</ele>
        <time>2015-11-10T13:07:54Z</time>
      </trkpt>
      <trkpt lat="44.98953" lon="4.52699">
        <ele>417</ele>
        <time>2015-11-10T13:07:58Z</time>
      </trkpt>
      <trkpt lat="44.98947" lon="4.52704">
        <ele>417</ele>
        <time>2015-11-10T13:08:02Z</time>
      </trkpt>
      <trkpt lat="44.98936" lon="4.52709">
        <ele>417</ele>
        <time>2015-11-10T13:08:06Z</time>
      </trkpt>
      <trkpt lat="44.98929" lon="4.52717">
        <ele>418</ele>
        <time>2015-11-10T13:08:11Z</time>
      </trkpt>
      <trkpt lat="44.98922" lon="4.52722">
        <ele>418</ele>
        <time>2015-11-10T13:08:15Z</time>
      </trkpt>
      <trkpt lat="44.98915" lon="4.52727">
        <ele>418</ele>
        <time>2015-11-10T13:08:20Z</time>
      </trkpt>
      <trkpt lat="44.98908" lon="4.52733">
        <ele>417</ele>
        <time>2015-11-10T13:08:26Z</time>
      </trkpt>
      <trkpt lat="44.98902" lon="4.52741">
        <ele>418</ele>
        <time>2015-11-10T13:08:36Z</time>
      </trkpt>
      <trkpt lat="44.98896" lon="4.52749">
        <ele>418</ele>
        <time>2015-11-10T13:08:41Z</time>
      </trkpt>
      <trkpt lat="44.98888" lon="4.5276">
        <ele>419</ele>
        <time>2015-11-10T13:08:46Z</time>
      </trkpt>
      <trkpt lat="44.98882" lon="4.52767">
        <ele>419</ele>
        <time>2015-11-10T13:08:50Z</time>
      </trkpt>
      <trkpt lat="44.98872" lon="4.52771">
        <ele>421</ele>
        <time>2015-11-10T13:08:54Z</time>
      </trkpt>
      <trkpt lat="44.98866" lon="4.52777">
        <ele>421</ele>
        <time>2015-11-10T13:09:00Z</time>
      </trkpt>
      <trkpt lat="44.9886" lon="4.5278">
        <ele>421</ele>
        <time>2015-11-10T13:09:04Z</time>
      </trkpt>
      <trkpt lat="44.98852" lon="4.52787">
        <ele>421</ele>
        <time>2015-11-10T13:09:09Z</time>
      </trkpt>
      <trkpt lat="44.98847" lon="4.52792">
        <ele>422</ele>
        <time>2015-11-10T13:09:13Z</time>
      </trkpt>
      <trkpt lat="44.98842" lon="4.52801">
        <ele>422</ele>
        <time>2015-11-10T13:09:20Z</time>
      </trkpt>
      <trkpt lat="44.98838" lon="4.52808">
        <ele>421</ele>
        <time>2015-11-10T13:09:33Z</time>
      </trkpt>
      <trkpt lat="44.98829" lon="4.5282">
        <ele>422</ele>
        <time>2015-11-10T13:09:37Z</time>
      </trkpt>
      <trkpt lat="44.98822" lon="4.5283">
        <ele>422</ele>
        <time>2015-11-10T13:09:41Z</time>
      </trkpt>
      <trkpt lat="44.98817" lon="4.52835">
        <ele>422</ele>
        <time>2015-11-10T13:09:44Z</time>
      </trkpt>
      <trkpt lat="44.98809" lon="4.52843">
        <ele>422</ele>
        <time>2015-11-10T13:09:48Z</time>
      </trkpt>
      <trkpt lat="44.98802" lon="4.52849">
        <ele>423</ele>
        <time>2015-11-10T13:09:55Z</time>
      </trkpt>
      <trkpt lat="44.98794" lon="4.52851">
        <ele>423</ele>
        <time>2015-11-10T13:10:02Z</time>
      </trkpt>
      <trkpt lat="44.98787" lon="4.52853">
        <ele>423</ele>
        <time>2015-11-10T13:10:08Z</time>
      </trkpt>
      <trkpt lat="44.9878" lon="4.52853">
        <ele>424</ele>
        <time>2015-11-10T13:10:12Z</time>
      </trkpt>
      <trkpt lat="44.98772" lon="4.52856">
        <ele>425</ele>
        <time>2015-11-10T13:10:16Z</time>
      </trkpt>
      <trkpt lat="44.98765" lon="4.5286">
        <ele>425</ele>
        <time>2015-11-10T13:10:23Z</time>
      </trkpt>
      <trkpt lat="44.98754" lon="4.52863">
        <ele>425</ele>
        <time>2015-11-10T13:10:28Z</time>
      </trkpt>
      <trkpt lat="44.98747" lon="4.52867">
        <ele>425</ele>
        <time>2015-11-10T13:10:33Z</time>
      </trkpt>
      <trkpt lat="44.98738" lon="4.52872">
        <ele>425</ele>
        <time>2015-11-10T13:10:38Z</time>
      </trkpt>
      <trkpt lat="44.98728" lon="4.52876">
        <ele>425</ele>
        <time>2015-11-10T13:10:42Z</time>
      </trkpt>
      <trkpt lat="44.98721" lon="4.52882">
        <ele>425</ele>
        <time>2015-11-10T13:10:51Z</time>
      </trkpt>
      <trkpt lat="44.98708" lon="4.52892">
        <ele>425</ele>
        <time>2015-11-10T13:10:55Z</time>
      </trkpt>
      <trkpt lat="44.98699" lon="4.52895">
        <ele>426</ele>
        <time>2015-11-10T13:11:00Z</time>
      </trkpt>
      <trkpt lat="44.98691" lon="4.529">
        <ele>425</ele>
        <time>2015-11-10T13:11:07Z</time>
      </trkpt>
      <trkpt lat="44.98687" lon="4.52905">
        <ele>425</ele>
        <time>2015-11-10T13:11:12Z</time>
      </trkpt>
      <trkpt lat="44.98674" lon="4.5291">
        <ele>425</ele>
        <time>2015-11-10T13:11:17Z</time>
      </trkpt>
      <trkpt lat="44.98666" lon="4.52915">
        <ele>425</ele>
        <time>2015-11-10T13:11:24Z</time>
      </trkpt>
      <trkpt lat="44.98665" lon="4.52917">
        <ele>425</ele>
        <time>2015-11-10T13:11:32Z</time>
      </trkpt>
      <trkpt lat="44.98652" lon="4.52922">
        <ele>425</ele>
        <time>2015-11-10T13:11:36Z</time>
      </trkpt>
      <trkpt lat="44.98646" lon="4.52923">
        <ele>425</ele>
        <time>2015-11-10T13:11:40Z</time>
      </trkpt>
      <trkpt lat="44.98638" lon="4.52921">
        <ele>425</ele>
        <time>2015-11-10T13:11:47Z</time>
      </trkpt>
      <trkpt lat="44.98629" lon="4.52918">
        <ele>425</ele>
        <time>2015-11-10T13:12:01Z</time>
      </trkpt>
      <trkpt lat="44.98619" lon="4.52915">
        <ele>425</ele>
        <time>2015-11-10T13:12:05Z</time>
      </trkpt>
      <trkpt lat="44.98612" lon="4.52915">
        <ele>425</ele>
        <time>2015-11-10T13:12:10Z</time>
      </trkpt>
      <trkpt lat="44.98605" lon="4.52907">
        <ele>425</ele>
        <time>2015-11-10T13:12:17Z</time>
      </trkpt>
      <trkpt lat="44.98597" lon="4.52882">
        <ele>425</ele>
        <time>2015-11-10T13:12:22Z</time>
      </trkpt>
      <trkpt lat="44.98591" lon="4.52872">
        <ele>425</ele>
        <time>2015-11-10T13:12:27Z</time>
      </trkpt>
      <trkpt lat="44.98581" lon="4.52865">
        <ele>425</ele>
        <time>2015-11-10T13:12:32Z</time>
      </trkpt>
      <trkpt lat="44.98573" lon="4.5286">
        <ele>426</ele>
        <time>2015-11-10T13:12:38Z</time>
      </trkpt>
      <trkpt lat="44.98567" lon="4.52854">
        <ele>426</ele>
        <time>2015-11-10T13:12:49Z</time>
      </trkpt>
      <trkpt lat="44.98562" lon="4.52844">
        <ele>426</ele>
        <time>2015-11-10T13:12:57Z</time>
      </trkpt>
      <trkpt lat="44.98554" lon="4.5284">
        <ele>426</ele>
        <time>2015-11-10T13:13:01Z</time>
      </trkpt>
      <trkpt lat="44.98548" lon="4.52836">
        <ele>426</ele>
        <time>2015-11-10T13:13:05Z</time>
      </trkpt>
      <trkpt lat="44.98541" lon="4.52834">
        <ele>426</ele>
        <time>2015-11-10T13:13:09Z</time>
      </trkpt>
      <trkpt lat="44.98532" lon="4.52836">
        <ele>426</ele>
        <time>2015-11-10T13:13:12Z</time>
      </trkpt>
      <trkpt lat="44.98525" lon="4.52834">
        <ele>426</ele>
        <time>2015-11-10T13:13:16Z</time>
      </trkpt>
      <trkpt lat="44.98516" lon="4.52828">
        <ele>426</ele>
        <time>2015-11-10T13:13:20Z</time>
      </trkpt>
      <trkpt lat="44.98506" lon="4.52818">
        <ele>426</ele>
        <time>2015-11-10T13:13:25Z</time>
      </trkpt>
      <trkpt lat="44.98492" lon="4.52817">
        <ele>425</ele>
        <time>2015-11-10T13:13:29Z</time>
      </trkpt>
      <trkpt lat="44.98484" lon="4.52821">
        <ele>425</ele>
        <time>2015-11-10T13:13:32Z</time>
      </trkpt>
      <trkpt lat="44.98476" lon="4.52817">
        <ele>424</ele>
        <time>2015-11-10T13:13:38Z</time>
      </trkpt>
      <trkpt lat="44.98471" lon="4.52815">
        <ele>424</ele>
        <time>2015-11-10T13:13:40Z</time>
      </trkpt>
      <trkpt lat="44.98463" lon="4.52814">
        <ele>424</ele>
        <time>2015-11-10T13:13:47Z</time>
      </trkpt>
      <trkpt lat="44.98456" lon="4.5282">
        <ele>423</ele>
        <time>2015-11-10T13:13:57Z</time>
      </trkpt>
      <trkpt lat="44.98453" lon="4.52822">
        <ele>423</ele>
        <time>2015-11-10T13:14:00Z</time>
      </trkpt>
      <trkpt lat="44.98423" lon="4.52824">
        <ele>421</ele>
        <time>2015-11-10T13:14:22Z</time>
      </trkpt>
      <trkpt lat="44.98422" lon="4.52826">
        <ele>421</ele>
        <time>2015-11-10T13:14:27Z</time>
      </trkpt>
      <trkpt lat="44.98415" lon="4.52837">
        <ele>421</ele>
        <time>2015-11-10T13:14:29Z</time>
      </trkpt>
      <trkpt lat="44.984" lon="4.5285">
        <ele>421</ele>
        <time>2015-11-10T13:14:42Z</time>
      </trkpt>
      <trkpt lat="44.98392" lon="4.52856">
        <ele>421</ele>
        <time>2015-11-10T13:14:46Z</time>
      </trkpt>
      <trkpt lat="44.98384" lon="4.52859">
        <ele>420</ele>
        <time>2015-11-10T13:14:54Z</time>
      </trkpt>
      <trkpt lat="44.98377" lon="4.5286">
        <ele>420</ele>
        <time>2015-11-10T13:15:00Z</time>
      </trkpt>
      <trkpt lat="44.9837" lon="4.5286">
        <ele>420</ele>
        <time>2015-11-10T13:15:07Z</time>
      </trkpt>
      <trkpt lat="44.9836" lon="4.52858">
        <ele>419</ele>
        <time>2015-11-10T13:15:12Z</time>
      </trkpt>
      <trkpt lat="44.98342" lon="4.52854">
        <ele>418</ele>
        <time>2015-11-10T13:15:22Z</time>
      </trkpt>
      <trkpt lat="44.98333" lon="4.52853">
        <ele>418</ele>
        <time>2015-11-10T13:15:28Z</time>
      </trkpt>
      <trkpt lat="44.98326" lon="4.52851">
        <ele>417</ele>
        <time>2015-11-10T13:15:40Z</time>
      </trkpt>
      <trkpt lat="44.98319" lon="4.52852">
        <ele>417</ele>
        <time>2015-11-10T13:15:47Z</time>
      </trkpt>
      <trkpt lat="44.98314" lon="4.52849">
        <ele>417</ele>
        <time>2015-11-10T13:15:53Z</time>
      </trkpt>
      <trkpt lat="44.98304" lon="4.52849">
        <ele>417</ele>
        <time>2015-11-10T13:15:57Z</time>
      </trkpt>
      <trkpt lat="44.98295" lon="4.52848">
        <ele>417</ele>
        <time>2015-11-10T13:16:01Z</time>
      </trkpt>
      <trkpt lat="44.98266" lon="4.52867">
        <ele>417</ele>
        <time>2015-11-10T13:16:05Z</time>
      </trkpt>
      <trkpt lat="44.98259" lon="4.5287">
        <ele>418</ele>
        <time>2015-11-10T13:16:12Z</time>
      </trkpt>
      <trkpt lat="44.98253" lon="4.52868">
        <ele>418</ele>
        <time>2015-11-10T13:16:22Z</time>
      </trkpt>
      <trkpt lat="44.98251" lon="4.5288">
        <ele>419</ele>
        <time>2015-11-10T13:16:27Z</time>
      </trkpt>
      <trkpt lat="44.98257" lon="4.52875">
        <ele>420</ele>
        <time>2015-11-10T13:16:32Z</time>
      </trkpt>
      <trkpt lat="44.98264" lon="4.52879">
        <ele>422</ele>
        <time>2015-11-10T13:16:38Z</time>
      </trkpt>
      <trkpt lat="44.98273" lon="4.52883">
        <ele>426</ele>
        <time>2015-11-10T13:16:46Z</time>
      </trkpt>
      <trkpt lat="44.98281" lon="4.52885">
        <ele>428</ele>
        <time>2015-11-10T13:17:01Z</time>
      </trkpt>
      <trkpt lat="44.98282" lon="4.52887">
        <ele>428</ele>
        <time>2015-11-10T13:17:14Z</time>
      </trkpt>
      <trkpt lat="44.98287" lon="4.52899">
        <ele>429</ele>
        <time>2015-11-10T13:17:19Z</time>
      </trkpt>
      <trkpt lat="44.98293" lon="4.52903">
        <ele>429</ele>
        <time>2015-11-10T13:17:32Z</time>
      </trkpt>
      <trkpt lat="44.98306" lon="4.52895">
        <ele>428</ele>
        <time>2015-11-10T13:17:36Z</time>
      </trkpt>
      <trkpt lat="44.98315" lon="4.5289">
        <ele>426</ele>
        <time>2015-11-10T13:17:40Z</time>
      </trkpt>
      <trkpt lat="44.9832" lon="4.52893">
        <ele>426</ele>
        <time>2015-11-10T13:17:48Z</time>
      </trkpt>
      <trkpt lat="44.98323" lon="4.52905">
        <ele>425</ele>
        <time>2015-11-10T13:17:53Z</time>
      </trkpt>
      <trkpt lat="44.98329" lon="4.52911">
        <ele>424</ele>
        <time>2015-11-10T13:18:00Z</time>
      </trkpt>
      <trkpt lat="44.98334" lon="4.52913">
        <ele>424</ele>
        <time>2015-11-10T13:18:05Z</time>
      </trkpt>
      <trkpt lat="44.9835" lon="4.52902">
        <ele>423</ele>
        <time>2015-11-10T13:18:10Z</time>
      </trkpt>
      <trkpt lat="44.9835" lon="4.52898">
        <ele>422</ele>
        <time>2015-11-10T13:18:14Z</time>
      </trkpt>
      <trkpt lat="44.98357" lon="4.52888">
        <ele>421</ele>
        <time>2015-11-10T13:18:18Z</time>
      </trkpt>
      <trkpt lat="44.98363" lon="4.52895">
        <ele>419</ele>
        <time>2015-11-10T13:18:26Z</time>
      </trkpt>
      <trkpt lat="44.98366" lon="4.52905">
        <ele>418</ele>
        <time>2015-11-10T13:18:32Z</time>
      </trkpt>
      <trkpt lat="44.98366" lon="4.52937">
        <ele>418</ele>
        <time>2015-11-10T13:18:37Z</time>
      </trkpt>
      <trkpt lat="44.98366" lon="4.52965">
        <ele>418</ele>
        <time>2015-11-10T13:18:40Z</time>
      </trkpt>
      <trkpt lat="44.98373" lon="4.5299">
        <ele>417</ele>
        <time>2015-11-10T13:18:43Z</time>
      </trkpt>
      <trkpt lat="44.98381" lon="4.53009">
        <ele>417</ele>
        <time>2015-11-10T13:18:47Z</time>
      </trkpt>
      <trkpt lat="44.98388" lon="4.53005">
        <ele>418</ele>
        <time>2015-11-10T13:18:53Z</time>
      </trkpt>
      <trkpt lat="44.98392" lon="4.53011">
        <ele>418</ele>
        <time>2015-11-10T13:18:57Z</time>
      </trkpt>
      <trkpt lat="44.984" lon="4.53016">
        <ele>417</ele>
        <time>2015-11-10T13:19:04Z</time>
      </trkpt>
      <trkpt lat="44.98405" lon="4.53023">
        <ele>416</ele>
        <time>2015-11-10T13:19:12Z</time>
      </trkpt>
      <trkpt lat="44.98414" lon="4.5303">
        <ele>416</ele>
        <time>2015-11-10T13:19:16Z</time>
      </trkpt>
      <trkpt lat="44.98418" lon="4.53035">
        <ele>416</ele>
        <time>2015-11-10T13:19:21Z</time>
      </trkpt>
      <trkpt lat="44.98429" lon="4.53043">
        <ele>415</ele>
        <time>2015-11-10T13:19:26Z</time>
      </trkpt>
      <trkpt lat="44.98437" lon="4.53048">
        <ele>417</ele>
        <time>2015-11-10T13:19:57Z</time>
      </trkpt>
      <trkpt lat="44.9844" lon="4.53058">
        <ele>419</ele>
        <time>2015-11-10T13:20:02Z</time>
      </trkpt>
      <trkpt lat="44.98444" lon="4.53065">
        <ele>419</ele>
        <time>2015-11-10T13:20:06Z</time>
      </trkpt>
      <trkpt lat="44.98455" lon="4.53079">
        <ele>419</ele>
        <time>2015-11-10T13:20:11Z</time>
      </trkpt>
      <trkpt lat="44.98466" lon="4.53087">
        <ele>418</ele>
        <time>2015-11-10T13:20:14Z</time>
      </trkpt>
      <trkpt lat="44.98473" lon="4.531">
        <ele>418</ele>
        <time>2015-11-10T13:20:19Z</time>
      </trkpt>
      <trkpt lat="44.98485" lon="4.53109">
        <ele>417</ele>
        <time>2015-11-10T13:20:24Z</time>
      </trkpt>
      <trkpt lat="44.98493" lon="4.53119">
        <ele>417</ele>
        <time>2015-11-10T13:20:28Z</time>
      </trkpt>
      <trkpt lat="44.98498" lon="4.53133">
        <ele>417</ele>
        <time>2015-11-10T13:20:32Z</time>
      </trkpt>
      <trkpt lat="44.98501" lon="4.53143">
        <ele>417</ele>
        <time>2015-11-10T13:20:35Z</time>
      </trkpt>
      <trkpt lat="44.98508" lon="4.53156">
        <ele>416</ele>
        <time>2015-11-10T13:20:40Z</time>
      </trkpt>
      <trkpt lat="44.98516" lon="4.5316">
        <ele>414</ele>
        <time>2015-11-10T13:20:45Z</time>
      </trkpt>
      <trkpt lat="44.9852" lon="4.53169">
        <ele>414</ele>
        <time>2015-11-10T13:20:59Z</time>
      </trkpt>
      <trkpt lat="44.9852" lon="4.53182">
        <ele>416</ele>
        <time>2015-11-10T13:21:02Z</time>
      </trkpt>
      <trkpt lat="44.98518" lon="4.53193">
        <ele>417</ele>
        <time>2015-11-10T13:21:06Z</time>
      </trkpt>
      <trkpt lat="44.98515" lon="4.53205">
        <ele>418</ele>
        <time>2015-11-10T13:21:10Z</time>
      </trkpt>
      <trkpt lat="44.98508" lon="4.53224">
        <ele>420</ele>
        <time>2015-11-10T13:21:14Z</time>
      </trkpt>
      <trkpt lat="44.98506" lon="4.53225">
        <ele>420</ele>
        <time>2015-11-10T13:21:15Z</time>
      </trkpt>
      <trkpt lat="44.98482" lon="4.53254">
        <ele>420</ele>
        <time>2015-11-10T13:21:30Z</time>
      </trkpt>
      <trkpt lat="44.98473" lon="4.53255">
        <ele>419</ele>
        <time>2015-11-10T13:21:36Z</time>
      </trkpt>
      <trkpt lat="44.98465" lon="4.53259">
        <ele>419</ele>
        <time>2015-11-10T13:21:44Z</time>
      </trkpt>
      <trkpt lat="44.98458" lon="4.53258">
        <ele>419</ele>
        <time>2015-11-10T13:21:48Z</time>
      </trkpt>
      <trkpt lat="44.98452" lon="4.53257">
        <ele>418</ele>
        <time>2015-11-10T13:21:52Z</time>
      </trkpt>
      <trkpt lat="44.98444" lon="4.53256">
        <ele>418</ele>
        <time>2015-11-10T13:21:57Z</time>
      </trkpt>
      <trkpt lat="44.98435" lon="4.53255">
        <ele>418</ele>
        <time>2015-11-10T13:22:03Z</time>
      </trkpt>
      <trkpt lat="44.98428" lon="4.53251">
        <ele>418</ele>
        <time>2015-11-10T13:22:09Z</time>
      </trkpt>
      <trkpt lat="44.98421" lon="4.53249">
        <ele>418</ele>
        <time>2015-11-10T13:22:14Z</time>
      </trkpt>
      <trkpt lat="44.98414" lon="4.53248">
        <ele>418</ele>
        <time>2015-11-10T13:22:21Z</time>
      </trkpt>
      <trkpt lat="44.98405" lon="4.53245">
        <ele>418</ele>
        <time>2015-11-10T13:22:27Z</time>
      </trkpt>
      <trkpt lat="44.98397" lon="4.53247">
        <ele>418</ele>
        <time>2015-11-10T13:22:32Z</time>
      </trkpt>
      <trkpt lat="44.98389" lon="4.53247">
        <ele>418</ele>
        <time>2015-11-10T13:22:38Z</time>
      </trkpt>
      <trkpt lat="44.98383" lon="4.53246">
        <ele>418</ele>
        <time>2015-11-10T13:22:42Z</time>
      </trkpt>
      <trkpt lat="44.98375" lon="4.53248">
        <ele>419</ele>
        <time>2015-11-10T13:22:49Z</time>
      </trkpt>
      <trkpt lat="44.98368" lon="4.53254">
        <ele>419</ele>
        <time>2015-11-10T13:22:56Z</time>
      </trkpt>
      <trkpt lat="44.98363" lon="4.53262">
        <ele>420</ele>
        <time>2015-11-10T13:23:01Z</time>
      </trkpt>
      <trkpt lat="44.98356" lon="4.53268">
        <ele>421</ele>
        <time>2015-11-10T13:23:07Z</time>
      </trkpt>
      <trkpt lat="44.98349" lon="4.53274">
        <ele>421</ele>
        <time>2015-11-10T13:23:12Z</time>
      </trkpt>
      <trkpt lat="44.98344" lon="4.53282">
        <ele>421</ele>
        <time>2015-11-10T13:23:16Z</time>
      </trkpt>
      <trkpt lat="44.98337" lon="4.53289">
        <ele>422</ele>
        <time>2015-11-10T13:23:22Z</time>
      </trkpt>
      <trkpt lat="44.9833" lon="4.53297">
        <ele>423</ele>
        <time>2015-11-10T13:23:29Z</time>
      </trkpt>
      <trkpt lat="44.98326" lon="4.53302">
        <ele>424</ele>
        <time>2015-11-10T13:23:34Z</time>
      </trkpt>
      <trkpt lat="44.98318" lon="4.53305">
        <ele>425</ele>
        <time>2015-11-10T13:23:39Z</time>
      </trkpt>
      <trkpt lat="44.9831" lon="4.5331">
        <ele>426</ele>
        <time>2015-11-10T13:23:45Z</time>
      </trkpt>
      <trkpt lat="44.98303" lon="4.53314">
        <ele>426</ele>
        <time>2015-11-10T13:23:48Z</time>
      </trkpt>
      <trkpt lat="44.98296" lon="4.53322">
        <ele>428</ele>
        <time>2015-11-10T13:23:54Z</time>
      </trkpt>
      <trkpt lat="44.98294" lon="4.53334">
        <ele>429</ele>
        <time>2015-11-10T13:24:06Z</time>
      </trkpt>
      <trkpt lat="44.9829" lon="4.53339">
        <ele>430</ele>
        <time>2015-11-10T13:24:12Z</time>
      </trkpt>
      <trkpt lat="44.98284" lon="4.53345">
        <ele>429</ele>
        <time>2015-11-10T13:24:17Z</time>
      </trkpt>
      <trkpt lat="44.9828" lon="4.53353">
        <ele>429</ele>
        <time>2015-11-10T13:24:20Z</time>
      </trkpt>
      <trkpt lat="44.98275" lon="4.53359">
        <ele>430</ele>
        <time>2015-11-10T13:24:24Z</time>
      </trkpt>
      <trkpt lat="44.98271" lon="4.53367">
        <ele>430</ele>
        <time>2015-11-10T13:24:28Z</time>
      </trkpt>
      <trkpt lat="44.98269" lon="4.53379">
        <ele>430</ele>
        <time>2015-11-10T13:24:32Z</time>
      </trkpt>
      <trkpt lat="44.9826" lon="4.53393">
        <ele>431</ele>
        <time>2015-11-10T13:24:36Z</time>
      </trkpt>
      <trkpt lat="44.98255" lon="4.53403">
        <ele>431</ele>
        <time>2015-11-10T13:24:41Z</time>
      </trkpt>
      <trkpt lat="44.98249" lon="4.53414">
        <ele>432</ele>
        <time>2015-11-10T13:24:46Z</time>
      </trkpt>
      <trkpt lat="44.98241" lon="4.53419">
        <ele>432</ele>
        <time>2015-11-10T13:24:51Z</time>
      </trkpt>
      <trkpt lat="44.98232" lon="4.53421">
        <ele>433</ele>
        <time>2015-11-10T13:24:56Z</time>
      </trkpt>
      <trkpt lat="44.98226" lon="4.5343">
        <ele>433</ele>
        <time>2015-11-10T13:25:06Z</time>
      </trkpt>
      <trkpt lat="44.98223" lon="4.53442">
        <ele>433</ele>
        <time>2015-11-10T13:25:11Z</time>
      </trkpt>
      <trkpt lat="44.98226" lon="4.53447">
        <ele>433</ele>
        <time>2015-11-10T13:25:15Z</time>
      </trkpt>
      <trkpt lat="44.98235" lon="4.53454">
        <ele>433</ele>
        <time>2015-11-10T13:25:27Z</time>
      </trkpt>
      <trkpt lat="44.98239" lon="4.53465">
        <ele>431</ele>
        <time>2015-11-10T13:25:33Z</time>
      </trkpt>
      <trkpt lat="44.98239" lon="4.53505">
        <ele>428</ele>
        <time>2015-11-10T13:25:53Z</time>
      </trkpt>
      <trkpt lat="44.9824" lon="4.53516">
        <ele>427</ele>
        <time>2015-11-10T13:25:58Z</time>
      </trkpt>
      <trkpt lat="44.98243" lon="4.53527">
        <ele>426</ele>
        <time>2015-11-10T13:26:04Z</time>
      </trkpt>
      <trkpt lat="44.98241" lon="4.53541">
        <ele>426</ele>
        <time>2015-11-10T13:26:08Z</time>
      </trkpt>
      <trkpt lat="44.98239" lon="4.53555">
        <ele>426</ele>
        <time>2015-11-10T13:26:12Z</time>
      </trkpt>
      <trkpt lat="44.98236" lon="4.53567">
        <ele>425</ele>
        <time>2015-11-10T13:26:16Z</time>
      </trkpt>
      <trkpt lat="44.98234" lon="4.53581">
        <ele>425</ele>
        <time>2015-11-10T13:26:21Z</time>
      </trkpt>
      <trkpt lat="44.98229" lon="4.53594">
        <ele>424</ele>
        <time>2015-11-10T13:26:26Z</time>
      </trkpt>
      <trkpt lat="44.9823" lon="4.53602">
        <ele>423</ele>
        <time>2015-11-10T13:26:31Z</time>
      </trkpt>
      <trkpt lat="44.98228" lon="4.53614">
        <ele>423</ele>
        <time>2015-11-10T13:26:36Z</time>
      </trkpt>
      <trkpt lat="44.98227" lon="4.53626">
        <ele>422</ele>
        <time>2015-11-10T13:26:40Z</time>
      </trkpt>
      <trkpt lat="44.98226" lon="4.53636">
        <ele>421</ele>
        <time>2015-11-10T13:26:46Z</time>
      </trkpt>
      <trkpt lat="44.98224" lon="4.53646">
        <ele>420</ele>
        <time>2015-11-10T13:26:52Z</time>
      </trkpt>
      <trkpt lat="44.98222" lon="4.53657">
        <ele>419</ele>
        <time>2015-11-10T13:26:58Z</time>
      </trkpt>
      <trkpt lat="44.98218" lon="4.53668">
        <ele>418</ele>
        <time>2015-11-10T13:27:05Z</time>
      </trkpt>
      <trkpt lat="44.98217" lon="4.5368">
        <ele>418</ele>
        <time>2015-11-10T13:27:13Z</time>
      </trkpt>
      <trkpt lat="44.98213" lon="4.53694">
        <ele>418</ele>
        <time>2015-11-10T13:27:18Z</time>
      </trkpt>
      <trkpt lat="44.98211" lon="4.53705">
        <ele>417</ele>
        <time>2015-11-10T13:27:23Z</time>
      </trkpt>
      <trkpt lat="44.98205" lon="4.53716">
        <ele>417</ele>
        <time>2015-11-10T13:27:28Z</time>
      </trkpt>
      <trkpt lat="44.98201" lon="4.53727">
        <ele>417</ele>
        <time>2015-11-10T13:27:34Z</time>
      </trkpt>
      <trkpt lat="44.98197" lon="4.53738">
        <ele>417</ele>
        <time>2015-11-10T13:27:39Z</time>
      </trkpt>
      <trkpt lat="44.98193" lon="4.53749">
        <ele>417</ele>
        <time>2015-11-10T13:27:46Z</time>
      </trkpt>
      <trkpt lat="44.98191" lon="4.5376">
        <ele>417</ele>
        <time>2015-11-10T13:27:51Z</time>
      </trkpt>
      <trkpt lat="44.98186" lon="4.53772">
        <ele>417</ele>
        <time>2015-11-10T13:27:56Z</time>
      </trkpt>
      <trkpt lat="44.98178" lon="4.53781">
        <ele>417</ele>
        <time>2015-11-10T13:28:01Z</time>
      </trkpt>
      <trkpt lat="44.98172" lon="4.53791">
        <ele>418</ele>
        <time>2015-11-10T13:28:06Z</time>
      </trkpt>
      <trkpt lat="44.98166" lon="4.53797">
        <ele>417</ele>
        <time>2015-11-10T13:28:12Z</time>
      </trkpt>
      <trkpt lat="44.98159" lon="4.53803">
        <ele>417</ele>
        <time>2015-11-10T13:28:19Z</time>
      </trkpt>
      <trkpt lat="44.98152" lon="4.5381">
        <ele>416</ele>
        <time>2015-11-10T13:28:27Z</time>
      </trkpt>
      <trkpt lat="44.98146" lon="4.53818">
        <ele>415</ele>
        <time>2015-11-10T13:28:33Z</time>
      </trkpt>
      <trkpt lat="44.98139" lon="4.53822">
        <ele>414</ele>
        <time>2015-11-10T13:28:37Z</time>
      </trkpt>
      <trkpt lat="44.98132" lon="4.53827">
        <ele>413</ele>
        <time>2015-11-10T13:28:42Z</time>
      </trkpt>
      <trkpt lat="44.98127" lon="4.53831">
        <ele>413</ele>
        <time>2015-11-10T13:28:45Z</time>
      </trkpt>
      <trkpt lat="44.9812" lon="4.53835">
        <ele>412</ele>
        <time>2015-11-10T13:28:50Z</time>
      </trkpt>
      <trkpt lat="44.98114" lon="4.5384">
        <ele>412</ele>
        <time>2015-11-10T13:28:54Z</time>
      </trkpt>
      <trkpt lat="44.98104" lon="4.53846">
        <ele>411</ele>
        <time>2015-11-10T13:28:58Z</time>
      </trkpt>
      <trkpt lat="44.98098" lon="4.53847">
        <ele>411</ele>
        <time>2015-11-10T13:29:02Z</time>
      </trkpt>
      <trkpt lat="44.98085" lon="4.53853">
        <ele>411</ele>
        <time>2015-11-10T13:29:07Z</time>
      </trkpt>
      <trkpt lat="44.98074" lon="4.53858">
        <ele>411</ele>
        <time>2015-11-10T13:29:12Z</time>
      </trkpt>
      <trkpt lat="44.98069" lon="4.53862">
        <ele>411</ele>
        <time>2015-11-10T13:29:16Z</time>
      </trkpt>
      <trkpt lat="44.98062" lon="4.53867">
        <ele>411</ele>
        <time>2015-11-10T13:29:20Z</time>
      </trkpt>
      <trkpt lat="44.98055" lon="4.53873">
        <ele>411</ele>
        <time>2015-11-10T13:29:29Z</time>
      </trkpt>
      <trkpt lat="44.98048" lon="4.5388">
        <ele>411</ele>
        <time>2015-11-10T13:29:34Z</time>
      </trkpt>
      <trkpt lat="44.98044" lon="4.53885">
        <ele>411</ele>
        <time>2015-11-10T13:29:39Z</time>
      </trkpt>
      <trkpt lat="44.98038" lon="4.53894">
        <ele>411</ele>
        <time>2015-11-10T13:29:43Z</time>
      </trkpt>
      <trkpt lat="44.98032" lon="4.53905">
        <ele>411</ele>
        <time>2015-11-10T13:29:48Z</time>
      </trkpt>
      <trkpt lat="44.9803" lon="4.53917">
        <ele>411</ele>
        <time>2015-11-10T13:29:59Z</time>
      </trkpt>
      <trkpt lat="44.98025" lon="4.53926">
        <ele>410</ele>
        <time>2015-11-10T13:30:06Z</time>
      </trkpt>
      <trkpt lat="44.98017" lon="4.53937">
        <ele>410</ele>
        <time>2015-11-10T13:30:11Z</time>
      </trkpt>
      <trkpt lat="44.98012" lon="4.53946">
        <ele>409</ele>
        <time>2015-11-10T13:30:17Z</time>
      </trkpt>
      <trkpt lat="44.98003" lon="4.53946">
        <ele>410</ele>
        <time>2015-11-10T13:30:22Z</time>
      </trkpt>
      <trkpt lat="44.97999" lon="4.53948">
        <ele>409</ele>
        <time>2015-11-10T13:30:35Z</time>
      </trkpt>
      <trkpt lat="44.98005" lon="4.53961">
        <ele>414</ele>
        <time>2015-11-10T13:30:38Z</time>
      </trkpt>
      <trkpt lat="44.97995" lon="4.53972">
        <ele>415</ele>
        <time>2015-11-10T13:30:42Z</time>
      </trkpt>
      <trkpt lat="44.97987" lon="4.53975">
        <ele>416</ele>
        <time>2015-11-10T13:30:48Z</time>
      </trkpt>
      <trkpt lat="44.97981" lon="4.53979">
        <ele>416</ele>
        <time>2015-11-10T13:30:53Z</time>
      </trkpt>
      <trkpt lat="44.97973" lon="4.53982">
        <ele>418</ele>
        <time>2015-11-10T13:31:00Z</time>
      </trkpt>
      <trkpt lat="44.97966" lon="4.53976">
        <ele>418</ele>
        <time>2015-11-10T13:31:08Z</time>
      </trkpt>
      <trkpt lat="44.97958" lon="4.53981">
        <ele>419</ele>
        <time>2015-11-10T13:31:12Z</time>
      </trkpt>
      <trkpt lat="44.97952" lon="4.53983">
        <ele>420</ele>
        <time>2015-11-10T13:31:15Z</time>
      </trkpt>
      <trkpt lat="44.97944" lon="4.53986">
        <ele>420</ele>
        <time>2015-11-10T13:31:20Z</time>
      </trkpt>
      <trkpt lat="44.97936" lon="4.5399">
        <ele>420</ele>
        <time>2015-11-10T13:31:25Z</time>
      </trkpt>
      <trkpt lat="44.97929" lon="4.53995">
        <ele>421</ele>
        <time>2015-11-10T13:31:30Z</time>
      </trkpt>
      <trkpt lat="44.97921" lon="4.53995">
        <ele>422</ele>
        <time>2015-11-10T13:31:36Z</time>
      </trkpt>
      <trkpt lat="44.97912" lon="4.53996">
        <ele>422</ele>
        <time>2015-11-10T13:31:41Z</time>
      </trkpt>
      <trkpt lat="44.97903" lon="4.53998">
        <ele>423</ele>
        <time>2015-11-10T13:31:48Z</time>
      </trkpt>
      <trkpt lat="44.97895" lon="4.53999">
        <ele>424</ele>
        <time>2015-11-10T13:31:54Z</time>
      </trkpt>
      <trkpt lat="44.97887" lon="4.54001">
        <ele>424</ele>
        <time>2015-11-10T13:32:01Z</time>
      </trkpt>
      <trkpt lat="44.9788" lon="4.54003">
        <ele>424</ele>
        <time>2015-11-10T13:32:08Z</time>
      </trkpt>
      <trkpt lat="44.97875" lon="4.54006">
        <ele>425</ele>
        <time>2015-11-10T13:32:12Z</time>
      </trkpt>
      <trkpt lat="44.97869" lon="4.5401">
        <ele>425</ele>
        <time>2015-11-10T13:32:16Z</time>
      </trkpt>
      <trkpt lat="44.97863" lon="4.54017">
        <ele>425</ele>
        <time>2015-11-10T13:32:20Z</time>
      </trkpt>
      <trkpt lat="44.97861" lon="4.54024">
        <ele>427</ele>
        <time>2015-11-10T13:32:26Z</time>
      </trkpt>
      <trkpt lat="44.9786" lon="4.54036">
        <ele>427</ele>
        <time>2015-11-10T13:32:31Z</time>
      </trkpt>
      <trkpt lat="44.97861" lon="4.54046">
        <ele>427</ele>
        <time>2015-11-10T13:32:36Z</time>
      </trkpt>
      <trkpt lat="44.9786" lon="4.54055">
        <ele>426</ele>
        <time>2015-11-10T13:32:40Z</time>
      </trkpt>
      <trkpt lat="44.97859" lon="4.54065">
        <ele>426</ele>
        <time>2015-11-10T13:32:44Z</time>
      </trkpt>
      <trkpt lat="44.97858" lon="4.54075">
        <ele>426</ele>
        <time>2015-11-10T13:32:50Z</time>
      </trkpt>
      <trkpt lat="44.97857" lon="4.54085">
        <ele>427</ele>
        <time>2015-11-10T13:32:56Z</time>
      </trkpt>
      <trkpt lat="44.97858" lon="4.54097">
        <ele>427</ele>
        <time>2015-11-10T13:33:04Z</time>
      </trkpt>
      <trkpt lat="44.97857" lon="4.54105">
        <ele>428</ele>
        <time>2015-11-10T13:33:08Z</time>
      </trkpt>
      <trkpt lat="44.97856" lon="4.54118">
        <ele>428</ele>
        <time>2015-11-10T13:33:13Z</time>
      </trkpt>
      <trkpt lat="44.97855" lon="4.54129">
        <ele>428</ele>
        <time>2015-11-10T13:33:20Z</time>
      </trkpt>
      <trkpt lat="44.97856" lon="4.54141">
        <ele>428</ele>
        <time>2015-11-10T13:33:28Z</time>
      </trkpt>
      <trkpt lat="44.97856" lon="4.54154">
        <ele>428</ele>
        <time>2015-11-10T13:33:33Z</time>
      </trkpt>
      <trkpt lat="44.97856" lon="4.54164">
        <ele>428</ele>
        <time>2015-11-10T13:33:39Z</time>
      </trkpt>
      <trkpt lat="44.97855" lon="4.54174">
        <ele>428</ele>
        <time>2015-11-10T13:33:43Z</time>
      </trkpt>
      <trkpt lat="44.97855" lon="4.54185">
        <ele>428</ele>
        <time>2015-11-10T13:33:48Z</time>
      </trkpt>
      <trkpt lat="44.97854" lon="4.54196">
        <ele>429</ele>
        <time>2015-11-10T13:33:54Z</time>
      </trkpt>
      <trkpt lat="44.97854" lon="4.54208">
        <ele>429</ele>
        <time>2015-11-10T13:34:00Z</time>
      </trkpt>
      <trkpt lat="44.97851" lon="4.54217">
        <ele>429</ele>
        <time>2015-11-10T13:34:04Z</time>
      </trkpt>
      <trkpt lat="44.97849" lon="4.54228">
        <ele>429</ele>
        <time>2015-11-10T13:34:08Z</time>
      </trkpt>
      <trkpt lat="44.9785" lon="4.54239">
        <ele>429</ele>
        <time>2015-11-10T13:34:14Z</time>
      </trkpt>
      <trkpt lat="44.9785" lon="4.54249">
        <ele>429</ele>
        <time>2015-11-10T13:34:19Z</time>
      </trkpt>
      <trkpt lat="44.97851" lon="4.54261">
        <ele>430</ele>
        <time>2015-11-10T13:34:25Z</time>
      </trkpt>
      <trkpt lat="44.9785" lon="4.54274">
        <ele>430</ele>
        <time>2015-11-10T13:34:29Z</time>
      </trkpt>
      <trkpt lat="44.97852" lon="4.54284">
        <ele>431</ele>
        <time>2015-11-10T13:34:39Z</time>
      </trkpt>
      <trkpt lat="44.9785" lon="4.54289">
        <ele>432</ele>
        <time>2015-11-10T13:34:42Z</time>
      </trkpt>
      <trkpt lat="44.97846" lon="4.543">
        <ele>432</ele>
        <time>2015-11-10T13:34:46Z</time>
      </trkpt>
      <trkpt lat="44.97841" lon="4.54307">
        <ele>433</ele>
        <time>2015-11-10T13:34:52Z</time>
      </trkpt>
      <trkpt lat="44.97836" lon="4.54317">
        <ele>434</ele>
        <time>2015-11-10T13:35:01Z</time>
      </trkpt>
      <trkpt lat="44.97828" lon="4.54323">
        <ele>434</ele>
        <time>2015-11-10T13:35:06Z</time>
      </trkpt>
      <trkpt lat="44.97821" lon="4.54327">
        <ele>434</ele>
        <time>2015-11-10T13:35:12Z</time>
      </trkpt>
      <trkpt lat="44.97813" lon="4.54332">
        <ele>435</ele>
        <time>2015-11-10T13:35:20Z</time>
      </trkpt>
      <trkpt lat="44.97808" lon="4.54338">
        <ele>434</ele>
        <time>2015-11-10T13:35:29Z</time>
      </trkpt>
      <trkpt lat="44.97802" lon="4.54346">
        <ele>434</ele>
        <time>2015-11-10T13:35:33Z</time>
      </trkpt>
      <trkpt lat="44.97798" lon="4.54354">
        <ele>433</ele>
        <time>2015-11-10T13:35:38Z</time>
      </trkpt>
      <trkpt lat="44.97793" lon="4.54362">
        <ele>433</ele>
        <time>2015-11-10T13:35:45Z</time>
      </trkpt>
      <trkpt lat="44.978" lon="4.54357">
        <ele>434</ele>
        <time>2015-11-10T13:36:03Z</time>
      </trkpt>
      <trkpt lat="44.97806" lon="4.54349">
        <ele>434</ele>
        <time>2015-11-10T13:36:07Z</time>
      </trkpt>
      <trkpt lat="44.9781" lon="4.54344">
        <ele>434</ele>
        <time>2015-11-10T13:36:10Z</time>
      </trkpt>
      <trkpt lat="44.97816" lon="4.54334">
        <ele>435</ele>
        <time>2015-11-10T13:36:14Z</time>
      </trkpt>
      <trkpt lat="44.97823" lon="4.54325">
        <ele>435</ele>
        <time>2015-11-10T13:36:18Z</time>
      </trkpt>
      <trkpt lat="44.97831" lon="4.54316">
        <ele>435</ele>
        <time>2015-11-10T13:36:23Z</time>
      </trkpt>
      <trkpt lat="44.97836" lon="4.54312">
        <ele>436</ele>
        <time>2015-11-10T13:36:30Z</time>
      </trkpt>
      <trkpt lat="44.97857" lon="4.54312">
        <ele>435</ele>
        <time>2015-11-10T13:36:34Z</time>
      </trkpt>
      <trkpt lat="44.97858" lon="4.54302">
        <ele>435</ele>
        <time>2015-11-10T13:36:39Z</time>
      </trkpt>
      <trkpt lat="44.97856" lon="4.54289">
        <ele>435</ele>
        <time>2015-11-10T13:36:43Z</time>
      </trkpt>
      <trkpt lat="44.97853" lon="4.54274">
        <ele>434</ele>
        <time>2015-11-10T13:36:47Z</time>
      </trkpt>
      <trkpt lat="44.9785" lon="4.54256">
        <ele>434</ele>
        <time>2015-11-10T13:36:51Z</time>
      </trkpt>
      <trkpt lat="44.97849" lon="4.5425">
        <ele>434</ele>
        <time>2015-11-10T13:36:52Z</time>
      </trkpt>
      <trkpt lat="44.97852" lon="4.54242">
        <ele>434</ele>
        <time>2015-11-10T13:36:56Z</time>
      </trkpt>
      <trkpt lat="44.9785" lon="4.54228">
        <ele>435</ele>
        <time>2015-11-10T13:37:01Z</time>
      </trkpt>
      <trkpt lat="44.97849" lon="4.54219">
        <ele>435</ele>
        <time>2015-11-10T13:37:05Z</time>
      </trkpt>
      <trkpt lat="44.97849" lon="4.54209">
        <ele>435</ele>
        <time>2015-11-10T13:37:09Z</time>
      </trkpt>
      <trkpt lat="44.97847" lon="4.54185">
        <ele>435</ele>
        <time>2015-11-10T13:37:13Z</time>
      </trkpt>
      <trkpt lat="44.97846" lon="4.54174">
        <ele>435</ele>
        <time>2015-11-10T13:37:19Z</time>
      </trkpt>
      <trkpt lat="44.97847" lon="4.54165">
        <ele>436</ele>
        <time>2015-11-10T13:37:24Z</time>
      </trkpt>
      <trkpt lat="44.97848" lon="4.54154">
        <ele>436</ele>
        <time>2015-11-10T13:37:30Z</time>
      </trkpt>
      <trkpt lat="44.9785" lon="4.54142">
        <ele>436</ele>
        <time>2015-11-10T13:37:40Z</time>
      </trkpt>
      <trkpt lat="44.97851" lon="4.54132">
        <ele>435</ele>
        <time>2015-11-10T13:38:01Z</time>
      </trkpt>
      <trkpt lat="44.97859" lon="4.54131">
        <ele>436</ele>
        <time>2015-11-10T13:38:15Z</time>
      </trkpt>
      <trkpt lat="44.97866" lon="4.54135">
        <ele>436</ele>
        <time>2015-11-10T13:38:21Z</time>
      </trkpt>
      <trkpt lat="44.97873" lon="4.54142">
        <ele>435</ele>
        <time>2015-11-10T13:38:28Z</time>
      </trkpt>
      <trkpt lat="44.9788" lon="4.54147">
        <ele>435</ele>
        <time>2015-11-10T13:38:34Z</time>
      </trkpt>
      <trkpt lat="44.97887" lon="4.5415">
        <ele>435</ele>
        <time>2015-11-10T13:38:39Z</time>
      </trkpt>
      <trkpt lat="44.97896" lon="4.54152">
        <ele>434</ele>
        <time>2015-11-10T13:38:48Z</time>
      </trkpt>
      <trkpt lat="44.97904" lon="4.54155">
        <ele>433</ele>
        <time>2015-11-10T13:38:54Z</time>
      </trkpt>
      <trkpt lat="44.9791" lon="4.54155">
        <ele>433</ele>
        <time>2015-11-10T13:38:58Z</time>
      </trkpt>
      <trkpt lat="44.97918" lon="4.54158">
        <ele>432</ele>
        <time>2015-11-10T13:39:02Z</time>
      </trkpt>
      <trkpt lat="44.97925" lon="4.54163">
        <ele>432</ele>
        <time>2015-11-10T13:39:06Z</time>
      </trkpt>
      <trkpt lat="44.97933" lon="4.54164">
        <ele>432</ele>
        <time>2015-11-10T13:39:11Z</time>
      </trkpt>
      <trkpt lat="44.97938" lon="4.54168">
        <ele>431</ele>
        <time>2015-11-10T13:39:15Z</time>
      </trkpt>
      <trkpt lat="44.97945" lon="4.54169">
        <ele>431</ele>
        <time>2015-11-10T13:39:18Z</time>
      </trkpt>
      <trkpt lat="44.97953" lon="4.54172">
        <ele>430</ele>
        <time>2015-11-10T13:39:23Z</time>
      </trkpt>
      <trkpt lat="44.9796" lon="4.54175">
        <ele>429</ele>
        <time>2015-11-10T13:39:32Z</time>
      </trkpt>
      <trkpt lat="44.97967" lon="4.54177">
        <ele>429</ele>
        <time>2015-11-10T13:39:36Z</time>
      </trkpt>
      <trkpt lat="44.97976" lon="4.54179">
        <ele>429</ele>
        <time>2015-11-10T13:39:40Z</time>
      </trkpt>
      <trkpt lat="44.97983" lon="4.54176">
        <ele>428</ele>
        <time>2015-11-10T13:39:50Z</time>
      </trkpt>
      <trkpt lat="44.97992" lon="4.54179">
        <ele>428</ele>
        <time>2015-11-10T13:40:00Z</time>
      </trkpt>
      <trkpt lat="44.98" lon="4.54178">
        <ele>427</ele>
        <time>2015-11-10T13:40:10Z</time>
      </trkpt>
      <trkpt lat="44.98003" lon="4.54184">
        <ele>426</ele>
        <time>2015-11-10T13:40:16Z</time>
      </trkpt>
      <trkpt lat="44.98008" lon="4.54195">
        <ele>425</ele>
        <time>2015-11-10T13:40:26Z</time>
      </trkpt>
      <trkpt lat="44.98012" lon="4.54204">
        <ele>424</ele>
        <time>2015-11-10T13:40:36Z</time>
      </trkpt>
      <trkpt lat="44.98018" lon="4.54213">
        <ele>423</ele>
        <time>2015-11-10T13:40:43Z</time>
      </trkpt>
      <trkpt lat="44.98026" lon="4.54218">
        <ele>422</ele>
        <time>2015-11-10T13:40:49Z</time>
      </trkpt>
      <trkpt lat="44.98032" lon="4.54223">
        <ele>422</ele>
        <time>2015-11-10T13:40:54Z</time>
      </trkpt>
      <trkpt lat="44.98038" lon="4.54229">
        <ele>420</ele>
        <time>2015-11-10T13:41:00Z</time>
      </trkpt>
      <trkpt lat="44.98043" lon="4.54239">
        <ele>419</ele>
        <time>2015-11-10T13:41:06Z</time>
      </trkpt>
      <trkpt lat="44.98047" lon="4.54249">
        <ele>418</ele>
        <time>2015-11-10T13:41:12Z</time>
      </trkpt>
      <trkpt lat="44.98054" lon="4.54257">
        <ele>417</ele>
        <time>2015-11-10T13:41:19Z</time>
      </trkpt>
      <trkpt lat="44.98055" lon="4.54269">
        <ele>416</ele>
        <time>2015-11-10T13:41:26Z</time>
      </trkpt>
      <trkpt lat="44.98058" lon="4.54281">
        <ele>414</ele>
        <time>2015-11-10T13:41:35Z</time>
      </trkpt>
      <trkpt lat="44.9806" lon="4.54291">
        <ele>413</ele>
        <time>2015-11-10T13:41:42Z</time>
      </trkpt>
      <trkpt lat="44.98062" lon="4.54303">
        <ele>412</ele>
        <time>2015-11-10T13:41:48Z</time>
      </trkpt>
      <trkpt lat="44.98065" lon="4.54314">
        <ele>411</ele>
        <time>2015-11-10T13:41:54Z</time>
      </trkpt>
      <trkpt lat="44.98068" lon="4.54324">
        <ele>410</ele>
        <time>2015-11-10T13:41:59Z</time>
      </trkpt>
      <trkpt lat="44.98069" lon="4.54336">
        <ele>409</ele>
        <time>2015-11-10T13:42:04Z</time>
      </trkpt>
      <trkpt lat="44.98072" lon="4.54347">
        <ele>408</ele>
        <time>2015-11-10T13:42:11Z</time>
      </trkpt>
      <trkpt lat="44.98077" lon="4.54357">
        <ele>406</ele>
        <time>2015-11-10T13:42:26Z</time>
      </trkpt>
      <trkpt lat="44.9808" lon="4.54368">
        <ele>407</ele>
        <time>2015-11-10T13:42:32Z</time>
      </trkpt>
      <trkpt lat="44.98084" lon="4.54376">
        <ele>407</ele>
        <time>2015-11-10T13:42:38Z</time>
      </trkpt>
      <trkpt lat="44.98079" lon="4.54395">
        <ele>408</ele>
        <time>2015-11-10T13:42:46Z</time>
      </trkpt>
      <trkpt lat="44.98084" lon="4.54405">
        <ele>406</ele>
        <time>2015-11-10T13:42:55Z</time>
      </trkpt>
      <trkpt lat="44.9809" lon="4.54405">
        <ele>406</ele>
        <time>2015-11-10T13:43:04Z</time>
      </trkpt>
      <trkpt lat="44.98104" lon="4.54414">
        <ele>404</ele>
        <time>2015-11-10T13:43:09Z</time>
      </trkpt>
      <trkpt lat="44.98109" lon="4.54429">
        <ele>405</ele>
        <time>2015-11-10T13:43:14Z</time>
      </trkpt>
      <trkpt lat="44.98117" lon="4.54431">
        <ele>405</ele>
        <time>2015-11-10T13:43:20Z</time>
      </trkpt>
      <trkpt lat="44.98124" lon="4.54424">
        <ele>405</ele>
        <time>2015-11-10T13:43:40Z</time>
      </trkpt>
      <trkpt lat="44.9813" lon="4.54428">
        <ele>405</ele>
        <time>2015-11-10T13:44:06Z</time>
      </trkpt>
      <trkpt lat="44.98134" lon="4.5444">
        <ele>403</ele>
        <time>2015-11-10T13:44:18Z</time>
      </trkpt>
      <trkpt lat="44.98138" lon="4.5445">
        <ele>403</ele>
        <time>2015-11-10T13:44:30Z</time>
      </trkpt>
      <trkpt lat="44.98142" lon="4.5446">
        <ele>403</ele>
        <time>2015-11-10T13:44:35Z</time>
      </trkpt>
      <trkpt lat="44.98149" lon="4.54463">
        <ele>403</ele>
        <time>2015-11-10T13:44:43Z</time>
      </trkpt>
      <trkpt lat="44.98148" lon="4.54475">
        <ele>404</ele>
        <time>2015-11-10T13:44:57Z</time>
      </trkpt>
      <trkpt lat="44.9814" lon="4.54479">
        <ele>401</ele>
        <time>2015-11-10T13:45:13Z</time>
      </trkpt>
      <trkpt lat="44.98136" lon="4.54488">
        <ele>400</ele>
        <time>2015-11-10T13:45:20Z</time>
      </trkpt>
      <trkpt lat="44.98131" lon="4.54488">
        <ele>397</ele>
        <time>2015-11-10T13:45:33Z</time>
      </trkpt>
      <trkpt lat="44.98123" lon="4.54486">
        <ele>396</ele>
        <time>2015-11-10T13:45:43Z</time>
      </trkpt>
      <trkpt lat="44.98118" lon="4.545">
        <ele>394</ele>
        <time>2015-11-10T13:45:48Z</time>
      </trkpt>
      <trkpt lat="44.98126" lon="4.54504">
        <ele>393</ele>
        <time>2015-11-10T13:45:55Z</time>
      </trkpt>
      <trkpt lat="44.98129" lon="4.54515">
        <ele>393</ele>
        <time>2015-11-10T13:46:07Z</time>
      </trkpt>
      <trkpt lat="44.98131" lon="4.54521">
        <ele>393</ele>
        <time>2015-11-10T13:46:12Z</time>
      </trkpt>
      <trkpt lat="44.9813" lon="4.54529">
        <ele>392</ele>
        <time>2015-11-10T13:46:27Z</time>
      </trkpt>
      <trkpt lat="44.98134" lon="4.54542">
        <ele>392</ele>
        <time>2015-11-10T13:46:31Z</time>
      </trkpt>
      <trkpt lat="44.98141" lon="4.54547">
        <ele>392</ele>
        <time>2015-11-10T13:46:41Z</time>
      </trkpt>
      <trkpt lat="44.98144" lon="4.54548">
        <ele>391</ele>
        <time>2015-11-10T13:47:19Z</time>
      </trkpt>
      <trkpt lat="44.98152" lon="4.5454">
        <ele>385</ele>
        <time>2015-11-10T13:47:20Z</time>
      </trkpt>
      <trkpt lat="44.9816" lon="4.54551">
        <ele>383</ele>
        <time>2015-11-10T13:47:29Z</time>
      </trkpt>
      <trkpt lat="44.98165" lon="4.54553">
        <ele>382</ele>
        <time>2015-11-10T13:47:34Z</time>
      </trkpt>
      <trkpt lat="44.98173" lon="4.54552">
        <ele>378</ele>
        <time>2015-11-10T13:48:30Z</time>
      </trkpt>
      <trkpt lat="44.98204" lon="4.54547">
        <ele>374</ele>
        <time>2015-11-10T13:48:35Z</time>
      </trkpt>
      <trkpt lat="44.98211" lon="4.54546">
        <ele>373</ele>
        <time>2015-11-10T13:48:40Z</time>
      </trkpt>
      <trkpt lat="44.98218" lon="4.54554">
        <ele>371</ele>
        <time>2015-11-10T13:48:57Z</time>
      </trkpt>
      <trkpt lat="44.98222" lon="4.54562">
        <ele>370</ele>
        <time>2015-11-10T13:49:05Z</time>
      </trkpt>
      <trkpt lat="44.98223" lon="4.54572">
        <ele>370</ele>
        <time>2015-11-10T13:49:09Z</time>
      </trkpt>
      <trkpt lat="44.98224" lon="4.54583">
        <ele>369</ele>
        <time>2015-11-10T13:49:17Z</time>
      </trkpt>
      <trkpt lat="44.98226" lon="4.54591">
        <ele>369</ele>
        <time>2015-11-10T13:49:21Z</time>
      </trkpt>
      <trkpt lat="44.98229" lon="4.54596">
        <ele>369</ele>
        <time>2015-11-10T13:49:23Z</time>
      </trkpt>
      <trkpt lat="44.98235" lon="4.54612">
        <ele>368</ele>
        <time>2015-11-10T13:49:32Z</time>
      </trkpt>
      <trkpt lat="44.98239" lon="4.54619">
        <ele>367</ele>
        <time>2015-11-10T13:49:36Z</time>
      </trkpt>
      <trkpt lat="44.9824" lon="4.54629">
        <ele>366</ele>
        <time>2015-11-10T13:49:41Z</time>
      </trkpt>
      <trkpt lat="44.9824" lon="4.54642">
        <ele>365</ele>
        <time>2015-11-10T13:49:48Z</time>
      </trkpt>
      <trkpt lat="44.9824" lon="4.54654">
        <ele>363</ele>
        <time>2015-11-10T13:49:55Z</time>
      </trkpt>
      <trkpt lat="44.98246" lon="4.54659">
        <ele>362</ele>
        <time>2015-11-10T13:50:04Z</time>
      </trkpt>
      <trkpt lat="44.98255" lon="4.54673">
        <ele>360</ele>
        <time>2015-11-10T13:50:09Z</time>
      </trkpt>
      <trkpt lat="44.98261" lon="4.54679">
        <ele>359</ele>
        <time>2015-11-10T13:50:15Z</time>
      </trkpt>
      <trkpt lat="44.98267" lon="4.54685">
        <ele>359</ele>
        <time>2015-11-10T13:50:19Z</time>
      </trkpt>
      <trkpt lat="44.98275" lon="4.54687">
        <ele>358</ele>
        <time>2015-11-10T13:50:24Z</time>
      </trkpt>
      <trkpt lat="44.98282" lon="4.54689">
        <ele>358</ele>
        <time>2015-11-10T13:50:30Z</time>
      </trkpt>
      <trkpt lat="44.98288" lon="4.54695">
        <ele>357</ele>
        <time>2015-11-10T13:50:34Z</time>
      </trkpt>
      <trkpt lat="44.98291" lon="4.54707">
        <ele>357</ele>
        <time>2015-11-10T13:50:39Z</time>
      </trkpt>
      <trkpt lat="44.98296" lon="4.54716">
        <ele>356</ele>
        <time>2015-11-10T13:50:43Z</time>
      </trkpt>
      <trkpt lat="44.98305" lon="4.54726">
        <ele>355</ele>
        <time>2015-11-10T13:50:47Z</time>
      </trkpt>
      <trkpt lat="44.98314" lon="4.54737">
        <ele>355</ele>
        <time>2015-11-10T13:50:51Z</time>
      </trkpt>
      <trkpt lat="44.98321" lon="4.54742">
        <ele>354</ele>
        <time>2015-11-10T13:50:57Z</time>
      </trkpt>
      <trkpt lat="44.98325" lon="4.54747">
        <ele>353</ele>
        <time>2015-11-10T13:51:09Z</time>
      </trkpt>
      <trkpt lat="44.98332" lon="4.54746">
        <ele>353</ele>
        <time>2015-11-10T13:51:13Z</time>
      </trkpt>
      <trkpt lat="44.9834" lon="4.5474">
        <ele>352</ele>
        <time>2015-11-10T13:51:20Z</time>
      </trkpt>
      <trkpt lat="44.98343" lon="4.54741">
        <ele>352</ele>
        <time>2015-11-10T13:51:25Z</time>
      </trkpt>
      <trkpt lat="44.98351" lon="4.54744">
        <ele>351</ele>
        <time>2015-11-10T13:51:28Z</time>
      </trkpt>
      <trkpt lat="44.98358" lon="4.54748">
        <ele>351</ele>
        <time>2015-11-10T13:51:34Z</time>
      </trkpt>
      <trkpt lat="44.98366" lon="4.54752">
        <ele>350</ele>
        <time>2015-11-10T13:51:40Z</time>
      </trkpt>
      <trkpt lat="44.98371" lon="4.54755">
        <ele>351</ele>
        <time>2015-11-10T13:51:46Z</time>
      </trkpt>
      <trkpt lat="44.98377" lon="4.54764">
        <ele>349</ele>
        <time>2015-11-10T13:51:53Z</time>
      </trkpt>
      <trkpt lat="44.9838" lon="4.54772">
        <ele>349</ele>
        <time>2015-11-10T13:51:58Z</time>
      </trkpt>
      <trkpt lat="44.98386" lon="4.54782">
        <ele>349</ele>
        <time>2015-11-10T13:52:03Z</time>
      </trkpt>
      <trkpt lat="44.98391" lon="4.54789">
        <ele>350</ele>
        <time>2015-11-10T13:52:07Z</time>
      </trkpt>
      <trkpt lat="44.98396" lon="4.54794">
        <ele>350</ele>
        <time>2015-11-10T13:52:11Z</time>
      </trkpt>
      <trkpt lat="44.98402" lon="4.548">
        <ele>350</ele>
        <time>2015-11-10T13:52:17Z</time>
      </trkpt>
      <trkpt lat="44.98411" lon="4.54804">
        <ele>350</ele>
        <time>2015-11-10T13:52:24Z</time>
      </trkpt>
      <trkpt lat="44.98425" lon="4.54807">
        <ele>352</ele>
        <time>2015-11-10T13:52:27Z</time>
      </trkpt>
      <trkpt lat="44.98434" lon="4.54801">
        <ele>352</ele>
        <time>2015-11-10T13:52:32Z</time>
      </trkpt>
      <trkpt lat="44.98447" lon="4.548">
        <ele>353</ele>
        <time>2015-11-10T13:52:36Z</time>
      </trkpt>
      <trkpt lat="44.98456" lon="4.54799">
        <ele>353</ele>
        <time>2015-11-10T13:52:39Z</time>
      </trkpt>
      <trkpt lat="44.98462" lon="4.54794">
        <ele>353</ele>
        <time>2015-11-10T13:52:43Z</time>
      </trkpt>
      <trkpt lat="44.98468" lon="4.54785">
        <ele>353</ele>
        <time>2015-11-10T13:52:46Z</time>
      </trkpt>
      <trkpt lat="44.98478" lon="4.54773">
        <ele>354</ele>
        <time>2015-11-10T13:52:51Z</time>
      </trkpt>
      <trkpt lat="44.98482" lon="4.5477">
        <ele>356</ele>
        <time>2015-11-10T13:52:55Z</time>
      </trkpt>
      <trkpt lat="44.98518" lon="4.54752">
        <ele>368</ele>
        <time>2015-11-10T13:53:00Z</time>
      </trkpt>
      <trkpt lat="44.98523" lon="4.54745">
        <ele>372</ele>
        <time>2015-11-10T13:53:05Z</time>
      </trkpt>
      <trkpt lat="44.98525" lon="4.54734">
        <ele>374</ele>
        <time>2015-11-10T13:53:12Z</time>
      </trkpt>
      <trkpt lat="44.98526" lon="4.54724">
        <ele>375</ele>
        <time>2015-11-10T13:53:16Z</time>
      </trkpt>
      <trkpt lat="44.9853" lon="4.5471">
        <ele>375</ele>
        <time>2015-11-10T13:53:21Z</time>
      </trkpt>
      <trkpt lat="44.9853" lon="4.54698">
        <ele>374</ele>
        <time>2015-11-10T13:53:27Z</time>
      </trkpt>
      <trkpt lat="44.98537" lon="4.54701">
        <ele>373</ele>
        <time>2015-11-10T13:53:42Z</time>
      </trkpt>
      <trkpt lat="44.9854" lon="4.54714">
        <ele>373</ele>
        <time>2015-11-10T13:53:47Z</time>
      </trkpt>
      <trkpt lat="44.98541" lon="4.54725">
        <ele>373</ele>
        <time>2015-11-10T13:53:51Z</time>
      </trkpt>
      <trkpt lat="44.98541" lon="4.54735">
        <ele>373</ele>
        <time>2015-11-10T13:53:55Z</time>
      </trkpt>
      <trkpt lat="44.98541" lon="4.54746">
        <ele>373</ele>
        <time>2015-11-10T13:53:59Z</time>
      </trkpt>
      <trkpt lat="44.98541" lon="4.54753">
        <ele>373</ele>
        <time>2015-11-10T13:54:02Z</time>
      </trkpt>
      <trkpt lat="44.98541" lon="4.54767">
        <ele>374</ele>
        <time>2015-11-10T13:54:06Z</time>
      </trkpt>
      <trkpt lat="44.98539" lon="4.54778">
        <ele>374</ele>
        <time>2015-11-10T13:54:10Z</time>
      </trkpt>
      <trkpt lat="44.98538" lon="4.54794">
        <ele>374</ele>
        <time>2015-11-10T13:54:15Z</time>
      </trkpt>
      <trkpt lat="44.98541" lon="4.54808">
        <ele>375</ele>
        <time>2015-11-10T13:54:20Z</time>
      </trkpt>
      <trkpt lat="44.98546" lon="4.54823">
        <ele>375</ele>
        <time>2015-11-10T13:54:25Z</time>
      </trkpt>
      <trkpt lat="44.98551" lon="4.54831">
        <ele>374</ele>
        <time>2015-11-10T13:54:28Z</time>
      </trkpt>
      <trkpt lat="44.98555" lon="4.54838">
        <ele>374</ele>
        <time>2015-11-10T13:54:31Z</time>
      </trkpt>
      <trkpt lat="44.9856" lon="4.54848">
        <ele>373</ele>
        <time>2015-11-10T13:54:35Z</time>
      </trkpt>
      <trkpt lat="44.98564" lon="4.54858">
        <ele>372</ele>
        <time>2015-11-10T13:54:39Z</time>
      </trkpt>
      <trkpt lat="44.98568" lon="4.54868">
        <ele>372</ele>
        <time>2015-11-10T13:54:43Z</time>
      </trkpt>
      <trkpt lat="44.98575" lon="4.54882">
        <ele>373</ele>
        <time>2015-11-10T13:54:48Z</time>
      </trkpt>
      <trkpt lat="44.9858" lon="4.5489">
        <ele>372</ele>
        <time>2015-11-10T13:54:52Z</time>
      </trkpt>
      <trkpt lat="44.98584" lon="4.54901">
        <ele>373</ele>
        <time>2015-11-10T13:54:56Z</time>
      </trkpt>
      <trkpt lat="44.98586" lon="4.54914">
        <ele>374</ele>
        <time>2015-11-10T13:55:00Z</time>
      </trkpt>
      <trkpt lat="44.98587" lon="4.54931">
        <ele>374</ele>
        <time>2015-11-10T13:55:05Z</time>
      </trkpt>
      <trkpt lat="44.98588" lon="4.54936">
        <ele>375</ele>
        <time>2015-11-10T13:55:06Z</time>
      </trkpt>
      <trkpt lat="44.98594" lon="4.54947">
        <ele>375</ele>
        <time>2015-11-10T13:55:21Z</time>
      </trkpt>
      <trkpt lat="44.98597" lon="4.54995">
        <ele>380</ele>
        <time>2015-11-10T13:55:25Z</time>
      </trkpt>
      <trkpt lat="44.98596" lon="4.54999">
        <ele>380</ele>
        <time>2015-11-10T13:55:26Z</time>
      </trkpt>
      <trkpt lat="44.98588" lon="4.5502">
        <ele>385</ele>
        <time>2015-11-10T13:55:34Z</time>
      </trkpt>
      <trkpt lat="44.98584" lon="4.55028">
        <ele>386</ele>
        <time>2015-11-10T13:55:39Z</time>
      </trkpt>
      <trkpt lat="44.98579" lon="4.55033">
        <ele>387</ele>
        <time>2015-11-10T13:55:42Z</time>
      </trkpt>
      <trkpt lat="44.98576" lon="4.55048">
        <ele>389</ele>
        <time>2015-11-10T13:55:47Z</time>
      </trkpt>
      <trkpt lat="44.98577" lon="4.55061">
        <ele>390</ele>
        <time>2015-11-10T13:55:51Z</time>
      </trkpt>
      <trkpt lat="44.98578" lon="4.55074">
        <ele>390</ele>
        <time>2015-11-10T13:55:55Z</time>
      </trkpt>
      <trkpt lat="44.98579" lon="4.55086">
        <ele>391</ele>
        <time>2015-11-10T13:55:59Z</time>
      </trkpt>
      <trkpt lat="44.9858" lon="4.55099">
        <ele>392</ele>
        <time>2015-11-10T13:56:03Z</time>
      </trkpt>
      <trkpt lat="44.98582" lon="4.55111">
        <ele>393</ele>
        <time>2015-11-10T13:56:07Z</time>
      </trkpt>
      <trkpt lat="44.98584" lon="4.55128">
        <ele>394</ele>
        <time>2015-11-10T13:56:12Z</time>
      </trkpt>
      <trkpt lat="44.98581" lon="4.55143">
        <ele>395</ele>
        <time>2015-11-10T13:56:17Z</time>
      </trkpt>
      <trkpt lat="44.98581" lon="4.55157">
        <ele>397</ele>
        <time>2015-11-10T13:56:21Z</time>
      </trkpt>
      <trkpt lat="44.98582" lon="4.55173">
        <ele>398</ele>
        <time>2015-11-10T13:56:26Z</time>
      </trkpt>
      <trkpt lat="44.98584" lon="4.55185">
        <ele>400</ele>
        <time>2015-11-10T13:56:30Z</time>
      </trkpt>
      <trkpt lat="44.98586" lon="4.55194">
        <ele>400</ele>
        <time>2015-11-10T13:56:33Z</time>
      </trkpt>
      <trkpt lat="44.98587" lon="4.55205">
        <ele>401</ele>
        <time>2015-11-10T13:56:37Z</time>
      </trkpt>
      <trkpt lat="44.98589" lon="4.55216">
        <ele>401</ele>
        <time>2015-11-10T13:56:40Z</time>
      </trkpt>
      <trkpt lat="44.98589" lon="4.55226">
        <ele>402</ele>
        <time>2015-11-10T13:56:43Z</time>
      </trkpt>
      <trkpt lat="44.98592" lon="4.55242">
        <ele>402</ele>
        <time>2015-11-10T13:56:48Z</time>
      </trkpt>
      <trkpt lat="44.98592" lon="4.55254">
        <ele>403</ele>
        <time>2015-11-10T13:56:52Z</time>
      </trkpt>
      <trkpt lat="44.98588" lon="4.55268">
        <ele>404</ele>
        <time>2015-11-10T13:56:57Z</time>
      </trkpt>
      <trkpt lat="44.9858" lon="4.55276">
        <ele>403</ele>
        <time>2015-11-10T13:57:01Z</time>
      </trkpt>
      <trkpt lat="44.98574" lon="4.5528">
        <ele>403</ele>
        <time>2015-11-10T13:57:04Z</time>
      </trkpt>
      <trkpt lat="44.98565" lon="4.55283">
        <ele>403</ele>
        <time>2015-11-10T13:57:08Z</time>
      </trkpt>
      <trkpt lat="44.98554" lon="4.55285">
        <ele>404</ele>
        <time>2015-11-10T13:57:13Z</time>
      </trkpt>
      <trkpt lat="44.98548" lon="4.55288">
        <ele>404</ele>
        <time>2015-11-10T13:57:16Z</time>
      </trkpt>
      <trkpt lat="44.98541" lon="4.5529">
        <ele>404</ele>
        <time>2015-11-10T13:57:19Z</time>
      </trkpt>
      <trkpt lat="44.98533" lon="4.5529">
        <ele>404</ele>
        <time>2015-11-10T13:57:23Z</time>
      </trkpt>
      <trkpt lat="44.98524" lon="4.55288">
        <ele>404</ele>
        <time>2015-11-10T13:57:27Z</time>
      </trkpt>
      <trkpt lat="44.98517" lon="4.55287">
        <ele>405</ele>
        <time>2015-11-10T13:57:30Z</time>
      </trkpt>
      <trkpt lat="44.98509" lon="4.55285">
        <ele>405</ele>
        <time>2015-11-10T13:57:34Z</time>
      </trkpt>
      <trkpt lat="44.98498" lon="4.55283">
        <ele>406</ele>
        <time>2015-11-10T13:57:39Z</time>
      </trkpt>
      <trkpt lat="44.98487" lon="4.55279">
        <ele>407</ele>
        <time>2015-11-10T13:57:43Z</time>
      </trkpt>
      <trkpt lat="44.98479" lon="4.55277">
        <ele>408</ele>
        <time>2015-11-10T13:57:47Z</time>
      </trkpt>
      <trkpt lat="44.98467" lon="4.55279">
        <ele>410</ele>
        <time>2015-11-10T13:57:52Z</time>
      </trkpt>
      <trkpt lat="44.98456" lon="4.55277">
        <ele>412</ele>
        <time>2015-11-10T13:57:57Z</time>
      </trkpt>
      <trkpt lat="44.98447" lon="4.55271">
        <ele>412</ele>
        <time>2015-11-10T13:58:01Z</time>
      </trkpt>
      <trkpt lat="44.98439" lon="4.55267">
        <ele>412</ele>
        <time>2015-11-10T13:58:05Z</time>
      </trkpt>
      <trkpt lat="44.98429" lon="4.5526">
        <ele>412</ele>
        <time>2015-11-10T13:58:09Z</time>
      </trkpt>
      <trkpt lat="44.98422" lon="4.55256">
        <ele>412</ele>
        <time>2015-11-10T13:58:12Z</time>
      </trkpt>
      <trkpt lat="44.98414" lon="4.55255">
        <ele>412</ele>
        <time>2015-11-10T13:58:16Z</time>
      </trkpt>
      <trkpt lat="44.98409" lon="4.55269">
        <ele>412</ele>
        <time>2015-11-10T13:58:21Z</time>
      </trkpt>
      <trkpt lat="44.98408" lon="4.55282">
        <ele>413</ele>
        <time>2015-11-10T13:58:25Z</time>
      </trkpt>
      <trkpt lat="44.98408" lon="4.55295">
        <ele>413</ele>
        <time>2015-11-10T13:58:30Z</time>
      </trkpt>
      <trkpt lat="44.98403" lon="4.5531">
        <ele>412</ele>
        <time>2015-11-10T13:58:35Z</time>
      </trkpt>
      <trkpt lat="44.98398" lon="4.55319">
        <ele>413</ele>
        <time>2015-11-10T13:58:39Z</time>
      </trkpt>
      <trkpt lat="44.98394" lon="4.55325">
        <ele>412</ele>
        <time>2015-11-10T13:58:42Z</time>
      </trkpt>
      <trkpt lat="44.98391" lon="4.55331">
        <ele>412</ele>
        <time>2015-11-10T13:58:45Z</time>
      </trkpt>
      <trkpt lat="44.98384" lon="4.5534">
        <ele>412</ele>
        <time>2015-11-10T13:58:49Z</time>
      </trkpt>
      <trkpt lat="44.9838" lon="4.55344">
        <ele>412</ele>
        <time>2015-11-10T13:58:52Z</time>
      </trkpt>
      <trkpt lat="44.98374" lon="4.55351">
        <ele>412</ele>
        <time>2015-11-10T13:58:56Z</time>
      </trkpt>
      <trkpt lat="44.98364" lon="4.55361">
        <ele>410</ele>
        <time>2015-11-10T13:59:00Z</time>
      </trkpt>
      <trkpt lat="44.98354" lon="4.55373">
        <ele>409</ele>
        <time>2015-11-10T13:59:05Z</time>
      </trkpt>
      <trkpt lat="44.98345" lon="4.5538">
        <ele>407</ele>
        <time>2015-11-10T13:59:09Z</time>
      </trkpt>
      <trkpt lat="44.98338" lon="4.55385">
        <ele>407</ele>
        <time>2015-11-10T13:59:12Z</time>
      </trkpt>
      <trkpt lat="44.98326" lon="4.5539">
        <ele>406</ele>
        <time>2015-11-10T13:59:16Z</time>
      </trkpt>
      <trkpt lat="44.98318" lon="4.55394">
        <ele>405</ele>
        <time>2015-11-10T13:59:22Z</time>
      </trkpt>
      <trkpt lat="44.98312" lon="4.55398">
        <ele>403</ele>
        <time>2015-11-10T13:59:27Z</time>
      </trkpt>
      <trkpt lat="44.98304" lon="4.554">
        <ele>402</ele>
        <time>2015-11-10T13:59:34Z</time>
      </trkpt>
      <trkpt lat="44.98298" lon="4.55401">
        <ele>400</ele>
        <time>2015-11-10T13:59:46Z</time>
      </trkpt>
      <trkpt lat="44.9829" lon="4.55402">
        <ele>400</ele>
        <time>2015-11-10T13:59:50Z</time>
      </trkpt>
      <trkpt lat="44.98281" lon="4.55406">
        <ele>399</ele>
        <time>2015-11-10T13:59:54Z</time>
      </trkpt>
      <trkpt lat="44.98272" lon="4.5541">
        <ele>399</ele>
        <time>2015-11-10T13:59:59Z</time>
      </trkpt>
      <trkpt lat="44.98266" lon="4.55415">
        <ele>400</ele>
        <time>2015-11-10T14:00:02Z</time>
      </trkpt>
      <trkpt lat="44.98259" lon="4.5542">
        <ele>399</ele>
        <time>2015-11-10T14:00:05Z</time>
      </trkpt>
      <trkpt lat="44.98248" lon="4.55425">
        <ele>398</ele>
        <time>2015-11-10T14:00:10Z</time>
      </trkpt>
      <trkpt lat="44.98239" lon="4.55428">
        <ele>398</ele>
        <time>2015-11-10T14:00:14Z</time>
      </trkpt>
      <trkpt lat="44.98231" lon="4.55431">
        <ele>398</ele>
        <time>2015-11-10T14:00:18Z</time>
      </trkpt>
      <trkpt lat="44.98225" lon="4.55433">
        <ele>398</ele>
        <time>2015-11-10T14:00:22Z</time>
      </trkpt>
      <trkpt lat="44.98218" lon="4.55433">
        <ele>398</ele>
        <time>2015-11-10T14:00:37Z</time>
      </trkpt>
      <trkpt lat="44.98212" lon="4.55437">
        <ele>399</ele>
        <time>2015-11-10T14:00:41Z</time>
      </trkpt>
      <trkpt lat="44.98207" lon="4.55446">
        <ele>399</ele>
        <time>2015-11-10T14:00:45Z</time>
      </trkpt>
      <trkpt lat="44.98203" lon="4.55457">
        <ele>400</ele>
        <time>2015-11-10T14:00:49Z</time>
      </trkpt>
      <trkpt lat="44.982" lon="4.55468">
        <ele>402</ele>
        <time>2015-11-10T14:00:53Z</time>
      </trkpt>
      <trkpt lat="44.98193" lon="4.5548">
        <ele>403</ele>
        <time>2015-11-10T14:00:58Z</time>
      </trkpt>
      <trkpt lat="44.98186" lon="4.55489">
        <ele>405</ele>
        <time>2015-11-10T14:01:02Z</time>
      </trkpt>
      <trkpt lat="44.98182" lon="4.55496">
        <ele>405</ele>
        <time>2015-11-10T14:01:05Z</time>
      </trkpt>
      <trkpt lat="44.98177" lon="4.55506">
        <ele>406</ele>
        <time>2015-11-10T14:01:09Z</time>
      </trkpt>
      <trkpt lat="44.98172" lon="4.55516">
        <ele>407</ele>
        <time>2015-11-10T14:01:13Z</time>
      </trkpt>
      <trkpt lat="44.98167" lon="4.55526">
        <ele>408</ele>
        <time>2015-11-10T14:01:17Z</time>
      </trkpt>
      <trkpt lat="44.98162" lon="4.55536">
        <ele>409</ele>
        <time>2015-11-10T14:01:21Z</time>
      </trkpt>
      <trkpt lat="44.98155" lon="4.55551">
        <ele>409</ele>
        <time>2015-11-10T14:01:26Z</time>
      </trkpt>
      <trkpt lat="44.98153" lon="4.55563">
        <ele>409</ele>
        <time>2015-11-10T14:01:31Z</time>
      </trkpt>
      <trkpt lat="44.98151" lon="4.5557">
        <ele>410</ele>
        <time>2015-11-10T14:01:34Z</time>
      </trkpt>
      <trkpt lat="44.98148" lon="4.55587">
        <ele>410</ele>
        <time>2015-11-10T14:01:39Z</time>
      </trkpt>
      <trkpt lat="44.98145" lon="4.55597">
        <ele>411</ele>
        <time>2015-11-10T14:01:43Z</time>
      </trkpt>
      <trkpt lat="44.9814" lon="4.55613">
        <ele>412</ele>
        <time>2015-11-10T14:01:48Z</time>
      </trkpt>
      <trkpt lat="44.98137" lon="4.55622">
        <ele>413</ele>
        <time>2015-11-10T14:01:52Z</time>
      </trkpt>
      <trkpt lat="44.98134" lon="4.55634">
        <ele>413</ele>
        <time>2015-11-10T14:01:56Z</time>
      </trkpt>
      <trkpt lat="44.98134" lon="4.55651">
        <ele>414</ele>
        <time>2015-11-10T14:02:01Z</time>
      </trkpt>
      <trkpt lat="44.98138" lon="4.55659">
        <ele>415</ele>
        <time>2015-11-10T14:02:05Z</time>
      </trkpt>
      <trkpt lat="44.98147" lon="4.55667">
        <ele>415</ele>
        <time>2015-11-10T14:02:09Z</time>
      </trkpt>
      <trkpt lat="44.98154" lon="4.55678">
        <ele>416</ele>
        <time>2015-11-10T14:02:13Z</time>
      </trkpt>
      <trkpt lat="44.98159" lon="4.55685">
        <ele>416</ele>
        <time>2015-11-10T14:02:16Z</time>
      </trkpt>
      <trkpt lat="44.98168" lon="4.55703">
        <ele>416</ele>
        <time>2015-11-10T14:02:21Z</time>
      </trkpt>
      <trkpt lat="44.98174" lon="4.55715">
        <ele>415</ele>
        <time>2015-11-10T14:02:25Z</time>
      </trkpt>
      <trkpt lat="44.98175" lon="4.55726">
        <ele>415</ele>
        <time>2015-11-10T14:02:29Z</time>
      </trkpt>
      <trkpt lat="44.98167" lon="4.5573">
        <ele>415</ele>
        <time>2015-11-10T14:02:37Z</time>
      </trkpt>
      <trkpt lat="44.98158" lon="4.55723">
        <ele>415</ele>
        <time>2015-11-10T14:02:42Z</time>
      </trkpt>
      <trkpt lat="44.98153" lon="4.55714">
        <ele>415</ele>
        <time>2015-11-10T14:02:47Z</time>
      </trkpt>
      <trkpt lat="44.98147" lon="4.55708">
        <ele>416</ele>
        <time>2015-11-10T14:02:51Z</time>
      </trkpt>
      <trkpt lat="44.98141" lon="4.55701">
        <ele>416</ele>
        <time>2015-11-10T14:02:55Z</time>
      </trkpt>
      <trkpt lat="44.98133" lon="4.55688">
        <ele>416</ele>
        <time>2015-11-10T14:02:59Z</time>
      </trkpt>
      <trkpt lat="44.98126" lon="4.55678">
        <ele>416</ele>
        <time>2015-11-10T14:03:04Z</time>
      </trkpt>
      <trkpt lat="44.98121" lon="4.55667">
        <ele>416</ele>
        <time>2015-11-10T14:03:08Z</time>
      </trkpt>
      <trkpt lat="44.98119" lon="4.55658">
        <ele>416</ele>
        <time>2015-11-10T14:03:13Z</time>
      </trkpt>
      <trkpt lat="44.98117" lon="4.55645">
        <ele>417</ele>
        <time>2015-11-10T14:03:17Z</time>
      </trkpt>
      <trkpt lat="44.98116" lon="4.55634">
        <ele>418</ele>
        <time>2015-11-10T14:03:20Z</time>
      </trkpt>
      <trkpt lat="44.98114" lon="4.55619">
        <ele>419</ele>
        <time>2015-11-10T14:03:25Z</time>
      </trkpt>
      <trkpt lat="44.9811" lon="4.55608">
        <ele>420</ele>
        <time>2015-11-10T14:03:32Z</time>
      </trkpt>
      <trkpt lat="44.98107" lon="4.55597">
        <ele>420</ele>
        <time>2015-11-10T14:03:39Z</time>
      </trkpt>
      <trkpt lat="44.98106" lon="4.55587">
        <ele>421</ele>
        <time>2015-11-10T14:03:45Z</time>
      </trkpt>
      <trkpt lat="44.98106" lon="4.55575">
        <ele>422</ele>
        <time>2015-11-10T14:03:53Z</time>
      </trkpt>
      <trkpt lat="44.98104" lon="4.55565">
        <ele>423</ele>
        <time>2015-11-10T14:03:57Z</time>
      </trkpt>
      <trkpt lat="44.98103" lon="4.55556">
        <ele>423</ele>
        <time>2015-11-10T14:04:01Z</time>
      </trkpt>
      <trkpt lat="44.98102" lon="4.55542">
        <ele>423</ele>
        <time>2015-11-10T14:04:06Z</time>
      </trkpt>
      <trkpt lat="44.98104" lon="4.5553">
        <ele>424</ele>
        <time>2015-11-10T14:04:12Z</time>
      </trkpt>
      <trkpt lat="44.98104" lon="4.55519">
        <ele>425</ele>
        <time>2015-11-10T14:04:17Z</time>
      </trkpt>
      <trkpt lat="44.98103" lon="4.55507">
        <ele>425</ele>
        <time>2015-11-10T14:04:23Z</time>
      </trkpt>
      <trkpt lat="44.98104" lon="4.55495">
        <ele>426</ele>
        <time>2015-11-10T14:04:29Z</time>
      </trkpt>
      <trkpt lat="44.98104" lon="4.55485">
        <ele>426</ele>
        <time>2015-11-10T14:04:35Z</time>
      </trkpt>
      <trkpt lat="44.98109" lon="4.55478">
        <ele>426</ele>
        <time>2015-11-10T14:04:40Z</time>
      </trkpt>
      <trkpt lat="44.98109" lon="4.55468">
        <ele>428</ele>
        <time>2015-11-10T14:04:49Z</time>
      </trkpt>
      <trkpt lat="44.98109" lon="4.55456">
        <ele>429</ele>
        <time>2015-11-10T14:04:55Z</time>
      </trkpt>
      <trkpt lat="44.98109" lon="4.55444">
        <ele>431</ele>
        <time>2015-11-10T14:05:04Z</time>
      </trkpt>
      <trkpt lat="44.98108" lon="4.55433">
        <ele>432</ele>
        <time>2015-11-10T14:05:08Z</time>
      </trkpt>
      <trkpt lat="44.98114" lon="4.55423">
        <ele>432</ele>
        <time>2015-11-10T14:05:13Z</time>
      </trkpt>
      <trkpt lat="44.98119" lon="4.55416">
        <ele>434</ele>
        <time>2015-11-10T14:05:19Z</time>
      </trkpt>
      <trkpt lat="44.98124" lon="4.55409">
        <ele>435</ele>
        <time>2015-11-10T14:05:26Z</time>
      </trkpt>
      <trkpt lat="44.98128" lon="4.55397">
        <ele>437</ele>
        <time>2015-11-10T14:05:33Z</time>
      </trkpt>
      <trkpt lat="44.98129" lon="4.55386">
        <ele>439</ele>
        <time>2015-11-10T14:05:39Z</time>
      </trkpt>
      <trkpt lat="44.98128" lon="4.55374">
        <ele>439</ele>
        <time>2015-11-10T14:05:43Z</time>
      </trkpt>
      <trkpt lat="44.9813" lon="4.55362">
        <ele>440</ele>
        <time>2015-11-10T14:05:50Z</time>
      </trkpt>
      <trkpt lat="44.9813" lon="4.5535">
        <ele>442</ele>
        <time>2015-11-10T14:05:57Z</time>
      </trkpt>
      <trkpt lat="44.98131" lon="4.55337">
        <ele>444</ele>
        <time>2015-11-10T14:06:04Z</time>
      </trkpt>
      <trkpt lat="44.98131" lon="4.55327">
        <ele>445</ele>
        <time>2015-11-10T14:06:10Z</time>
      </trkpt>
      <trkpt lat="44.98132" lon="4.55318">
        <ele>446</ele>
        <time>2015-11-10T14:06:13Z</time>
      </trkpt>
      <trkpt lat="44.98135" lon="4.55307">
        <ele>448</ele>
        <time>2015-11-10T14:06:19Z</time>
      </trkpt>
      <trkpt lat="44.98138" lon="4.55299">
        <ele>449</ele>
        <time>2015-11-10T14:06:23Z</time>
      </trkpt>
      <trkpt lat="44.98141" lon="4.55293">
        <ele>450</ele>
        <time>2015-11-10T14:06:26Z</time>
      </trkpt>
      <trkpt lat="44.98148" lon="4.55286">
        <ele>451</ele>
        <time>2015-11-10T14:06:30Z</time>
      </trkpt>
      <trkpt lat="44.98154" lon="4.5528">
        <ele>452</ele>
        <time>2015-11-10T14:06:34Z</time>
      </trkpt>
      <trkpt lat="44.98161" lon="4.55277">
        <ele>454</ele>
        <time>2015-11-10T14:06:39Z</time>
      </trkpt>
      <trkpt lat="44.98166" lon="4.55273">
        <ele>454</ele>
        <time>2015-11-10T14:06:44Z</time>
      </trkpt>
      <trkpt lat="44.98173" lon="4.55257">
        <ele>458</ele>
        <time>2015-11-10T14:06:55Z</time>
      </trkpt>
      <trkpt lat="44.98175" lon="4.55246">
        <ele>460</ele>
        <time>2015-11-10T14:07:03Z</time>
      </trkpt>
      <trkpt lat="44.98172" lon="4.55236">
        <ele>461</ele>
        <time>2015-11-10T14:07:10Z</time>
      </trkpt>
      <trkpt lat="44.98168" lon="4.5523">
        <ele>462</ele>
        <time>2015-11-10T14:07:14Z</time>
      </trkpt>
      <trkpt lat="44.98162" lon="4.55221">
        <ele>463</ele>
        <time>2015-11-10T14:07:19Z</time>
      </trkpt>
      <trkpt lat="44.98157" lon="4.55214">
        <ele>464</ele>
        <time>2015-11-10T14:07:23Z</time>
      </trkpt>
      <trkpt lat="44.98152" lon="4.55203">
        <ele>464</ele>
        <time>2015-11-10T14:07:28Z</time>
      </trkpt>
      <trkpt lat="44.98145" lon="4.55194">
        <ele>466</ele>
        <time>2015-11-10T14:07:33Z</time>
      </trkpt>
      <trkpt lat="44.98141" lon="4.55186">
        <ele>467</ele>
        <time>2015-11-10T14:07:37Z</time>
      </trkpt>
      <trkpt lat="44.98136" lon="4.55175">
        <ele>468</ele>
        <time>2015-11-10T14:07:42Z</time>
      </trkpt>
      <trkpt lat="44.98132" lon="4.55167">
        <ele>469</ele>
        <time>2015-11-10T14:07:45Z</time>
      </trkpt>
      <trkpt lat="44.98126" lon="4.55156">
        <ele>468</ele>
        <time>2015-11-10T14:07:49Z</time>
      </trkpt>
      <trkpt lat="44.98123" lon="4.5515">
        <ele>468</ele>
        <time>2015-11-10T14:07:51Z</time>
      </trkpt>
      <trkpt lat="44.98118" lon="4.55136">
        <ele>468</ele>
        <time>2015-11-10T14:07:58Z</time>
      </trkpt>
      <trkpt lat="44.98113" lon="4.55123">
        <ele>468</ele>
        <time>2015-11-10T14:08:02Z</time>
      </trkpt>
      <trkpt lat="44.98111" lon="4.55117">
        <ele>468</ele>
        <time>2015-11-10T14:08:03Z</time>
      </trkpt>
      <trkpt lat="44.98104" lon="4.55109">
        <ele>468</ele>
        <time>2015-11-10T14:08:09Z</time>
      </trkpt>
      <trkpt lat="44.98096" lon="4.55093">
        <ele>466</ele>
        <time>2015-11-10T14:08:13Z</time>
      </trkpt>
      <trkpt lat="44.98092" lon="4.55085">
        <ele>468</ele>
        <time>2015-11-10T14:08:22Z</time>
      </trkpt>
      <trkpt lat="44.98082" lon="4.55069">
        <ele>469</ele>
        <time>2015-11-10T14:08:26Z</time>
      </trkpt>
      <trkpt lat="44.98076" lon="4.5506">
        <ele>471</ele>
        <time>2015-11-10T14:08:36Z</time>
      </trkpt>
      <trkpt lat="44.98071" lon="4.5505">
        <ele>471</ele>
        <time>2015-11-10T14:08:43Z</time>
      </trkpt>
      <trkpt lat="44.98066" lon="4.55039">
        <ele>472</ele>
        <time>2015-11-10T14:08:48Z</time>
      </trkpt>
      <trkpt lat="44.9806" lon="4.55027">
        <ele>473</ele>
        <time>2015-11-10T14:08:53Z</time>
      </trkpt>
      <trkpt lat="44.98058" lon="4.55016">
        <ele>476</ele>
        <time>2015-11-10T14:08:58Z</time>
      </trkpt>
      <trkpt lat="44.98053" lon="4.55006">
        <ele>476</ele>
        <time>2015-11-10T14:09:05Z</time>
      </trkpt>
      <trkpt lat="44.98048" lon="4.55">
        <ele>476</ele>
        <time>2015-11-10T14:09:09Z</time>
      </trkpt>
      <trkpt lat="44.98045" lon="4.55">
        <ele>476</ele>
        <time>2015-11-10T14:09:11Z</time>
      </trkpt>
      <trkpt lat="44.98035" lon="4.54986">
        <ele>475</ele>
        <time>2015-11-10T14:09:24Z</time>
      </trkpt>
      <trkpt lat="44.9803" lon="4.5498">
        <ele>475</ele>
        <time>2015-11-10T14:09:29Z</time>
      </trkpt>
      <trkpt lat="44.98022" lon="4.54974">
        <ele>474</ele>
        <time>2015-11-10T14:09:33Z</time>
      </trkpt>
      <trkpt lat="44.98013" lon="4.54967">
        <ele>474</ele>
        <time>2015-11-10T14:09:37Z</time>
      </trkpt>
      <trkpt lat="44.98007" lon="4.54959">
        <ele>474</ele>
        <time>2015-11-10T14:09:42Z</time>
      </trkpt>
      <trkpt lat="44.98001" lon="4.54952">
        <ele>475</ele>
        <time>2015-11-10T14:09:48Z</time>
      </trkpt>
      <trkpt lat="44.97995" lon="4.54945">
        <ele>475</ele>
        <time>2015-11-10T14:09:52Z</time>
      </trkpt>
      <trkpt lat="44.97986" lon="4.54936">
        <ele>474</ele>
        <time>2015-11-10T14:09:57Z</time>
      </trkpt>
      <trkpt lat="44.9798" lon="4.54928">
        <ele>473</ele>
        <time>2015-11-10T14:10:01Z</time>
      </trkpt>
      <trkpt lat="44.97973" lon="4.54917">
        <ele>473</ele>
        <time>2015-11-10T14:10:05Z</time>
      </trkpt>
      <trkpt lat="44.97964" lon="4.54907">
        <ele>472</ele>
        <time>2015-11-10T14:10:10Z</time>
      </trkpt>
      <trkpt lat="44.97958" lon="4.54902">
        <ele>471</ele>
        <time>2015-11-10T14:10:15Z</time>
      </trkpt>
      <trkpt lat="44.97952" lon="4.54894">
        <ele>468</ele>
        <time>2015-11-10T14:10:25Z</time>
      </trkpt>
      <trkpt lat="44.97949" lon="4.54886">
        <ele>468</ele>
        <time>2015-11-10T14:10:29Z</time>
      </trkpt>
      <trkpt lat="44.97939" lon="4.54874">
        <ele>468</ele>
        <time>2015-11-10T14:10:33Z</time>
      </trkpt>
      <trkpt lat="44.97932" lon="4.54864">
        <ele>468</ele>
        <time>2015-11-10T14:10:37Z</time>
      </trkpt>
      <trkpt lat="44.97926" lon="4.54853">
        <ele>469</ele>
        <time>2015-11-10T14:10:41Z</time>
      </trkpt>
      <trkpt lat="44.9792" lon="4.54842">
        <ele>469</ele>
        <time>2015-11-10T14:10:45Z</time>
      </trkpt>
      <trkpt lat="44.97916" lon="4.54833">
        <ele>469</ele>
        <time>2015-11-10T14:10:52Z</time>
      </trkpt>
      <trkpt lat="44.97909" lon="4.54815">
        <ele>468</ele>
        <time>2015-11-10T14:10:55Z</time>
      </trkpt>
      <trkpt lat="44.97903" lon="4.54808">
        <ele>467</ele>
        <time>2015-11-10T14:10:59Z</time>
      </trkpt>
      <trkpt lat="44.97895" lon="4.54801">
        <ele>467</ele>
        <time>2015-11-10T14:11:03Z</time>
      </trkpt>
      <trkpt lat="44.97888" lon="4.54788">
        <ele>467</ele>
        <time>2015-11-10T14:11:08Z</time>
      </trkpt>
      <trkpt lat="44.97887" lon="4.54778">
        <ele>467</ele>
        <time>2015-11-10T14:11:11Z</time>
      </trkpt>
      <trkpt lat="44.97891" lon="4.54762">
        <ele>467</ele>
        <time>2015-11-10T14:11:16Z</time>
      </trkpt>
      <trkpt lat="44.97893" lon="4.54743">
        <ele>466</ele>
        <time>2015-11-10T14:11:21Z</time>
      </trkpt>
      <trkpt lat="44.97891" lon="4.54734">
        <ele>465</ele>
        <time>2015-11-10T14:11:24Z</time>
      </trkpt>
      <trkpt lat="44.97888" lon="4.54725">
        <ele>465</ele>
        <time>2015-11-10T14:11:27Z</time>
      </trkpt>
      <trkpt lat="44.97881" lon="4.54715">
        <ele>465</ele>
        <time>2015-11-10T14:11:31Z</time>
      </trkpt>
      <trkpt lat="44.97873" lon="4.54706">
        <ele>465</ele>
        <time>2015-11-10T14:11:35Z</time>
      </trkpt>
      <trkpt lat="44.97866" lon="4.54698">
        <ele>463</ele>
        <time>2015-11-10T14:11:39Z</time>
      </trkpt>
      <trkpt lat="44.97858" lon="4.54692">
        <ele>463</ele>
        <time>2015-11-10T14:11:43Z</time>
      </trkpt>
      <trkpt lat="44.97852" lon="4.54681">
        <ele>462</ele>
        <time>2015-11-10T14:11:47Z</time>
      </trkpt>
      <trkpt lat="44.97848" lon="4.54667">
        <ele>462</ele>
        <time>2015-11-10T14:11:51Z</time>
      </trkpt>
      <trkpt lat="44.9784" lon="4.54652">
        <ele>463</ele>
        <time>2015-11-10T14:11:56Z</time>
      </trkpt>
      <trkpt lat="44.97834" lon="4.54645">
        <ele>464</ele>
        <time>2015-11-10T14:11:59Z</time>
      </trkpt>
      <trkpt lat="44.97827" lon="4.54638">
        <ele>464</ele>
        <time>2015-11-10T14:12:03Z</time>
      </trkpt>
      <trkpt lat="44.9782" lon="4.5463">
        <ele>463</ele>
        <time>2015-11-10T14:12:11Z</time>
      </trkpt>
      <trkpt lat="44.97814" lon="4.54624">
        <ele>453</ele>
        <time>2015-11-10T14:18:24Z</time>
      </trkpt>
      <trkpt lat="44.97806" lon="4.54621">
        <ele>453</ele>
        <time>2015-11-10T14:18:28Z</time>
      </trkpt>
      <trkpt lat="44.97796" lon="4.5462">
        <ele>453</ele>
        <time>2015-11-10T14:18:32Z</time>
      </trkpt>
      <trkpt lat="44.97785" lon="4.54611">
        <ele>452</ele>
        <time>2015-11-10T14:18:37Z</time>
      </trkpt>
      <trkpt lat="44.9778" lon="4.54605">
        <ele>452</ele>
        <time>2015-11-10T14:18:42Z</time>
      </trkpt>
      <trkpt lat="44.97772" lon="4.54589">
        <ele>453</ele>
        <time>2015-11-10T14:18:46Z</time>
      </trkpt>
      <trkpt lat="44.97769" lon="4.54577">
        <ele>452</ele>
        <time>2015-11-10T14:18:49Z</time>
      </trkpt>
      <trkpt lat="44.97765" lon="4.54565">
        <ele>452</ele>
        <time>2015-11-10T14:18:53Z</time>
      </trkpt>
      <trkpt lat="44.97758" lon="4.54552">
        <ele>452</ele>
        <time>2015-11-10T14:18:58Z</time>
      </trkpt>
      <trkpt lat="44.97751" lon="4.54538">
        <ele>452</ele>
        <time>2015-11-10T14:19:01Z</time>
      </trkpt>
      <trkpt lat="44.97744" lon="4.54528">
        <ele>452</ele>
        <time>2015-11-10T14:19:06Z</time>
      </trkpt>
      <trkpt lat="44.97738" lon="4.54517">
        <ele>451</ele>
        <time>2015-11-10T14:19:10Z</time>
      </trkpt>
      <trkpt lat="44.9773" lon="4.54501">
        <ele>451</ele>
        <time>2015-11-10T14:19:15Z</time>
      </trkpt>
      <trkpt lat="44.97726" lon="4.54489">
        <ele>452</ele>
        <time>2015-11-10T14:19:19Z</time>
      </trkpt>
      <trkpt lat="44.9772" lon="4.54477">
        <ele>455</ele>
        <time>2015-11-10T14:19:23Z</time>
      </trkpt>
      <trkpt lat="44.97713" lon="4.54468">
        <ele>459</ele>
        <time>2015-11-10T14:19:27Z</time>
      </trkpt>
      <trkpt lat="44.97703" lon="4.54462">
        <ele>461</ele>
        <time>2015-11-10T14:19:31Z</time>
      </trkpt>
      <trkpt lat="44.97695" lon="4.54458">
        <ele>462</ele>
        <time>2015-11-10T14:19:35Z</time>
      </trkpt>
      <trkpt lat="44.97685" lon="4.54453">
        <ele>463</ele>
        <time>2015-11-10T14:19:39Z</time>
      </trkpt>
      <trkpt lat="44.97676" lon="4.54451">
        <ele>465</ele>
        <time>2015-11-10T14:19:43Z</time>
      </trkpt>
      <trkpt lat="44.97668" lon="4.5444">
        <ele>467</ele>
        <time>2015-11-10T14:19:48Z</time>
      </trkpt>
      <trkpt lat="44.9767" lon="4.54419">
        <ele>473</ele>
        <time>2015-11-10T14:19:53Z</time>
      </trkpt>
      <trkpt lat="44.97677" lon="4.54408">
        <ele>474</ele>
        <time>2015-11-10T14:19:57Z</time>
      </trkpt>
      <trkpt lat="44.97686" lon="4.544">
        <ele>475</ele>
        <time>2015-11-10T14:20:01Z</time>
      </trkpt>
      <trkpt lat="44.97693" lon="4.54395">
        <ele>475</ele>
        <time>2015-11-10T14:20:04Z</time>
      </trkpt>
      <trkpt lat="44.977" lon="4.54382">
        <ele>476</ele>
        <time>2015-11-10T14:20:09Z</time>
      </trkpt>
      <trkpt lat="44.97702" lon="4.5437">
        <ele>476</ele>
        <time>2015-11-10T14:20:13Z</time>
      </trkpt>
      <trkpt lat="44.97699" lon="4.54358">
        <ele>477</ele>
        <time>2015-11-10T14:20:17Z</time>
      </trkpt>
      <trkpt lat="44.97696" lon="4.54346">
        <ele>477</ele>
        <time>2015-11-10T14:20:21Z</time>
      </trkpt>
      <trkpt lat="44.9769" lon="4.54333">
        <ele>477</ele>
        <time>2015-11-10T14:20:25Z</time>
      </trkpt>
      <trkpt lat="44.97692" lon="4.54316">
        <ele>475</ele>
        <time>2015-11-10T14:20:30Z</time>
      </trkpt>
      <trkpt lat="44.97702" lon="4.54304">
        <ele>477</ele>
        <time>2015-11-10T14:20:35Z</time>
      </trkpt>
      <trkpt lat="44.9771" lon="4.54297">
        <ele>478</ele>
        <time>2015-11-10T14:20:39Z</time>
      </trkpt>
      <trkpt lat="44.97718" lon="4.5429">
        <ele>479</ele>
        <time>2015-11-10T14:20:43Z</time>
      </trkpt>
      <trkpt lat="44.97725" lon="4.54278">
        <ele>480</ele>
        <time>2015-11-10T14:20:48Z</time>
      </trkpt>
      <trkpt lat="44.97726" lon="4.54266">
        <ele>480</ele>
        <time>2015-11-10T14:20:52Z</time>
      </trkpt>
      <trkpt lat="44.97724" lon="4.54253">
        <ele>479</ele>
        <time>2015-11-10T14:20:56Z</time>
      </trkpt>
      <trkpt lat="44.97721" lon="4.5424">
        <ele>480</ele>
        <time>2015-11-10T14:21:00Z</time>
      </trkpt>
      <trkpt lat="44.97716" lon="4.54226">
        <ele>481</ele>
        <time>2015-11-10T14:21:05Z</time>
      </trkpt>
      <trkpt lat="44.97709" lon="4.54217">
        <ele>482</ele>
        <time>2015-11-10T14:21:09Z</time>
      </trkpt>
      <trkpt lat="44.97702" lon="4.54211">
        <ele>481</ele>
        <time>2015-11-10T14:21:13Z</time>
      </trkpt>
      <trkpt lat="44.97696" lon="4.54206">
        <ele>481</ele>
        <time>2015-11-10T14:21:19Z</time>
      </trkpt>
      <trkpt lat="44.97692" lon="4.54198">
        <ele>482</ele>
        <time>2015-11-10T14:21:25Z</time>
      </trkpt>
      <trkpt lat="44.97691" lon="4.54187">
        <ele>482</ele>
        <time>2015-11-10T14:21:31Z</time>
      </trkpt>
      <trkpt lat="44.97689" lon="4.54177">
        <ele>482</ele>
        <time>2015-11-10T14:21:35Z</time>
      </trkpt>
      <trkpt lat="44.9769" lon="4.54161">
        <ele>482</ele>
        <time>2015-11-10T14:21:40Z</time>
      </trkpt>
      <trkpt lat="44.9769" lon="4.54151">
        <ele>483</ele>
        <time>2015-11-10T14:21:43Z</time>
      </trkpt>
      <trkpt lat="44.97688" lon="4.54139">
        <ele>483</ele>
        <time>2015-11-10T14:21:47Z</time>
      </trkpt>
      <trkpt lat="44.97684" lon="4.54127">
        <ele>483</ele>
        <time>2015-11-10T14:21:51Z</time>
      </trkpt>
      <trkpt lat="44.97678" lon="4.54118">
        <ele>483</ele>
        <time>2015-11-10T14:21:55Z</time>
      </trkpt>
      <trkpt lat="44.97674" lon="4.54106">
        <ele>482</ele>
        <time>2015-11-10T14:21:59Z</time>
      </trkpt>
      <trkpt lat="44.97672" lon="4.54093">
        <ele>482</ele>
        <time>2015-11-10T14:22:03Z</time>
      </trkpt>
      <trkpt lat="44.97665" lon="4.54081">
        <ele>481</ele>
        <time>2015-11-10T14:22:07Z</time>
      </trkpt>
      <trkpt lat="44.9766" lon="4.54065">
        <ele>480</ele>
        <time>2015-11-10T14:22:12Z</time>
      </trkpt>
      <trkpt lat="44.97658" lon="4.54056">
        <ele>480</ele>
        <time>2015-11-10T14:22:15Z</time>
      </trkpt>
      <trkpt lat="44.97656" lon="4.54042">
        <ele>480</ele>
        <time>2015-11-10T14:22:19Z</time>
      </trkpt>
      <trkpt lat="44.97653" lon="4.54029">
        <ele>480</ele>
        <time>2015-11-10T14:22:23Z</time>
      </trkpt>
      <trkpt lat="44.97651" lon="4.54014">
        <ele>480</ele>
        <time>2015-11-10T14:22:27Z</time>
      </trkpt>
      <trkpt lat="44.97647" lon="4.54003">
        <ele>479</ele>
        <time>2015-11-10T14:22:31Z</time>
      </trkpt>
      <trkpt lat="44.97639" lon="4.53993">
        <ele>481</ele>
        <time>2015-11-10T14:22:36Z</time>
      </trkpt>
      <trkpt lat="44.97629" lon="4.53988">
        <ele>481</ele>
        <time>2015-11-10T14:22:40Z</time>
      </trkpt>
      <trkpt lat="44.97621" lon="4.53985">
        <ele>483</ele>
        <time>2015-11-10T14:22:45Z</time>
      </trkpt>
      <trkpt lat="44.97614" lon="4.53987">
        <ele>485</ele>
        <time>2015-11-10T14:22:49Z</time>
      </trkpt>
      <trkpt lat="44.97603" lon="4.53988">
        <ele>487</ele>
        <time>2015-11-10T14:22:53Z</time>
      </trkpt>
      <trkpt lat="44.97593" lon="4.53987">
        <ele>489</ele>
        <time>2015-11-10T14:22:57Z</time>
      </trkpt>
      <trkpt lat="44.97582" lon="4.53987">
        <ele>491</ele>
        <time>2015-11-10T14:23:01Z</time>
      </trkpt>
      <trkpt lat="44.97573" lon="4.53986">
        <ele>492</ele>
        <time>2015-11-10T14:23:04Z</time>
      </trkpt>
      <trkpt lat="44.97557" lon="4.53988">
        <ele>495</ele>
        <time>2015-11-10T14:23:09Z</time>
      </trkpt>
      <trkpt lat="44.97549" lon="4.53989">
        <ele>497</ele>
        <time>2015-11-10T14:23:12Z</time>
      </trkpt>
      <trkpt lat="44.97538" lon="4.53991">
        <ele>501</ele>
        <time>2015-11-10T14:23:16Z</time>
      </trkpt>
      <trkpt lat="44.97531" lon="4.53991">
        <ele>504</ele>
        <time>2015-11-10T14:23:19Z</time>
      </trkpt>
      <trkpt lat="44.97521" lon="4.53995">
        <ele>505</ele>
        <time>2015-11-10T14:23:23Z</time>
      </trkpt>
      <trkpt lat="44.97513" lon="4.53996">
        <ele>507</ele>
        <time>2015-11-10T14:23:29Z</time>
      </trkpt>
      <trkpt lat="44.97506" lon="4.53997">
        <ele>509</ele>
        <time>2015-11-10T14:23:33Z</time>
      </trkpt>
      <trkpt lat="44.97498" lon="4.53997">
        <ele>511</ele>
        <time>2015-11-10T14:23:38Z</time>
      </trkpt>
      <trkpt lat="44.9749" lon="4.53995">
        <ele>513</ele>
        <time>2015-11-10T14:23:43Z</time>
      </trkpt>
      <trkpt lat="44.97485" lon="4.5399">
        <ele>514</ele>
        <time>2015-11-10T14:23:48Z</time>
      </trkpt>
      <trkpt lat="44.97479" lon="4.53984">
        <ele>516</ele>
        <time>2015-11-10T14:23:53Z</time>
      </trkpt>
      <trkpt lat="44.97474" lon="4.53977">
        <ele>516</ele>
        <time>2015-11-10T14:23:59Z</time>
      </trkpt>
      <trkpt lat="44.97465" lon="4.53972">
        <ele>515</ele>
        <time>2015-11-10T14:24:06Z</time>
      </trkpt>
      <trkpt lat="44.97458" lon="4.53966">
        <ele>514</ele>
        <time>2015-11-10T14:24:11Z</time>
      </trkpt>
      <trkpt lat="44.9745" lon="4.53963">
        <ele>514</ele>
        <time>2015-11-10T14:24:18Z</time>
      </trkpt>
      <trkpt lat="44.97443" lon="4.53958">
        <ele>514</ele>
        <time>2015-11-10T14:24:25Z</time>
      </trkpt>
      <trkpt lat="44.97434" lon="4.53959">
        <ele>515</ele>
        <time>2015-11-10T14:24:30Z</time>
      </trkpt>
      <trkpt lat="44.97425" lon="4.53958">
        <ele>516</ele>
        <time>2015-11-10T14:24:34Z</time>
      </trkpt>
      <trkpt lat="44.97414" lon="4.53945">
        <ele>516</ele>
        <time>2015-11-10T14:24:39Z</time>
      </trkpt>
      <trkpt lat="44.97408" lon="4.53934">
        <ele>515</ele>
        <time>2015-11-10T14:24:43Z</time>
      </trkpt>
      <trkpt lat="44.97402" lon="4.53925">
        <ele>514</ele>
        <time>2015-11-10T14:24:47Z</time>
      </trkpt>
      <trkpt lat="44.97397" lon="4.53914">
        <ele>511</ele>
        <time>2015-11-10T14:24:51Z</time>
      </trkpt>
      <trkpt lat="44.97393" lon="4.53903">
        <ele>511</ele>
        <time>2015-11-10T14:24:55Z</time>
      </trkpt>
      <trkpt lat="44.9739" lon="4.53891">
        <ele>509</ele>
        <time>2015-11-10T14:24:59Z</time>
      </trkpt>
      <trkpt lat="44.97384" lon="4.5388">
        <ele>507</ele>
        <time>2015-11-10T14:25:03Z</time>
      </trkpt>
      <trkpt lat="44.9738" lon="4.53868">
        <ele>506</ele>
        <time>2015-11-10T14:25:08Z</time>
      </trkpt>
      <trkpt lat="44.97377" lon="4.53857">
        <ele>504</ele>
        <time>2015-11-10T14:25:15Z</time>
      </trkpt>
      <trkpt lat="44.97371" lon="4.53847">
        <ele>503</ele>
        <time>2015-11-10T14:25:21Z</time>
      </trkpt>
      <trkpt lat="44.97365" lon="4.5384">
        <ele>502</ele>
        <time>2015-11-10T14:25:26Z</time>
      </trkpt>
      <trkpt lat="44.97359" lon="4.5383">
        <ele>502</ele>
        <time>2015-11-10T14:25:31Z</time>
      </trkpt>
      <trkpt lat="44.97351" lon="4.53821">
        <ele>503</ele>
        <time>2015-11-10T14:25:36Z</time>
      </trkpt>
      <trkpt lat="44.97344" lon="4.53812">
        <ele>504</ele>
        <time>2015-11-10T14:25:40Z</time>
      </trkpt>
      <trkpt lat="44.97338" lon="4.53805">
        <ele>504</ele>
        <time>2015-11-10T14:25:43Z</time>
      </trkpt>
      <trkpt lat="44.9733" lon="4.53795">
        <ele>504</ele>
        <time>2015-11-10T14:25:47Z</time>
      </trkpt>
      <trkpt lat="44.97323" lon="4.53785">
        <ele>504</ele>
        <time>2015-11-10T14:25:51Z</time>
      </trkpt>
      <trkpt lat="44.97319" lon="4.53774">
        <ele>505</ele>
        <time>2015-11-10T14:25:55Z</time>
      </trkpt>
      <trkpt lat="44.97316" lon="4.53765">
        <ele>505</ele>
        <time>2015-11-10T14:25:58Z</time>
      </trkpt>
      <trkpt lat="44.9731" lon="4.53748">
        <ele>506</ele>
        <time>2015-11-10T14:26:03Z</time>
      </trkpt>
      <trkpt lat="44.97307" lon="4.53739">
        <ele>507</ele>
        <time>2015-11-10T14:26:06Z</time>
      </trkpt>
      <trkpt lat="44.97302" lon="4.53727">
        <ele>507</ele>
        <time>2015-11-10T14:26:10Z</time>
      </trkpt>
      <trkpt lat="44.97298" lon="4.53714">
        <ele>510</ele>
        <time>2015-11-10T14:26:15Z</time>
      </trkpt>
      <trkpt lat="44.97295" lon="4.53704">
        <ele>511</ele>
        <time>2015-11-10T14:26:21Z</time>
      </trkpt>
      <trkpt lat="44.97292" lon="4.53694">
        <ele>512</ele>
        <time>2015-11-10T14:26:26Z</time>
      </trkpt>
      <trkpt lat="44.97289" lon="4.53685">
        <ele>512</ele>
        <time>2015-11-10T14:26:30Z</time>
      </trkpt>
      <trkpt lat="44.97287" lon="4.53677">
        <ele>513</ele>
        <time>2015-11-10T14:26:34Z</time>
      </trkpt>
      <trkpt lat="44.97286" lon="4.53665">
        <ele>513</ele>
        <time>2015-11-10T14:26:40Z</time>
      </trkpt>
      <trkpt lat="44.97286" lon="4.53659">
        <ele>513</ele>
        <time>2015-11-10T14:26:43Z</time>
      </trkpt>
      <trkpt lat="44.97286" lon="4.53645">
        <ele>513</ele>
        <time>2015-11-10T14:26:47Z</time>
      </trkpt>
      <trkpt lat="44.97288" lon="4.53633">
        <ele>513</ele>
        <time>2015-11-10T14:26:51Z</time>
      </trkpt>
      <trkpt lat="44.97289" lon="4.53616">
        <ele>512</ele>
        <time>2015-11-10T14:26:56Z</time>
      </trkpt>
      <trkpt lat="44.97288" lon="4.536">
        <ele>515</ele>
        <time>2015-11-10T14:27:01Z</time>
      </trkpt>
      <trkpt lat="44.97287" lon="4.5359">
        <ele>515</ele>
        <time>2015-11-10T14:27:04Z</time>
      </trkpt>
      <trkpt lat="44.97285" lon="4.53573">
        <ele>516</ele>
        <time>2015-11-10T14:27:09Z</time>
      </trkpt>
      <trkpt lat="44.97284" lon="4.53561">
        <ele>516</ele>
        <time>2015-11-10T14:27:13Z</time>
      </trkpt>
      <trkpt lat="44.97286" lon="4.53548">
        <ele>517</ele>
        <time>2015-11-10T14:27:17Z</time>
      </trkpt>
      <trkpt lat="44.97288" lon="4.53535">
        <ele>517</ele>
        <time>2015-11-10T14:27:21Z</time>
      </trkpt>
      <trkpt lat="44.97293" lon="4.53527">
        <ele>518</ele>
        <time>2015-11-10T14:27:24Z</time>
      </trkpt>
      <trkpt lat="44.97301" lon="4.53518">
        <ele>518</ele>
        <time>2015-11-10T14:27:28Z</time>
      </trkpt>
      <trkpt lat="44.97307" lon="4.5351">
        <ele>519</ele>
        <time>2015-11-10T14:27:31Z</time>
      </trkpt>
      <trkpt lat="44.97314" lon="4.53497">
        <ele>520</ele>
        <time>2015-11-10T14:27:36Z</time>
      </trkpt>
      <trkpt lat="44.97319" lon="4.5349">
        <ele>521</ele>
        <time>2015-11-10T14:27:43Z</time>
      </trkpt>
      <trkpt lat="44.97321" lon="4.53481">
        <ele>522</ele>
        <time>2015-11-10T14:27:48Z</time>
      </trkpt>
      <trkpt lat="44.97321" lon="4.53469">
        <ele>522</ele>
        <time>2015-11-10T14:27:54Z</time>
      </trkpt>
      <trkpt lat="44.97316" lon="4.53458">
        <ele>523</ele>
        <time>2015-11-10T14:27:59Z</time>
      </trkpt>
      <trkpt lat="44.97311" lon="4.53449">
        <ele>524</ele>
        <time>2015-11-10T14:28:02Z</time>
      </trkpt>
      <trkpt lat="44.97307" lon="4.53441">
        <ele>524</ele>
        <time>2015-11-10T14:28:05Z</time>
      </trkpt>
      <trkpt lat="44.97303" lon="4.53425">
        <ele>524</ele>
        <time>2015-11-10T14:28:10Z</time>
      </trkpt>
      <trkpt lat="44.97303" lon="4.53413">
        <ele>524</ele>
        <time>2015-11-10T14:28:14Z</time>
      </trkpt>
      <trkpt lat="44.97303" lon="4.53403">
        <ele>523</ele>
        <time>2015-11-10T14:28:17Z</time>
      </trkpt>
      <trkpt lat="44.97305" lon="4.53391">
        <ele>522</ele>
        <time>2015-11-10T14:28:21Z</time>
      </trkpt>
      <trkpt lat="44.97306" lon="4.5338">
        <ele>522</ele>
        <time>2015-11-10T14:28:24Z</time>
      </trkpt>
      <trkpt lat="44.97312" lon="4.53363">
        <ele>523</ele>
        <time>2015-11-10T14:28:29Z</time>
      </trkpt>
      <trkpt lat="44.97323" lon="4.53354">
        <ele>525</ele>
        <time>2015-11-10T14:28:34Z</time>
      </trkpt>
      <trkpt lat="44.97331" lon="4.53353">
        <ele>525</ele>
        <time>2015-11-10T14:28:39Z</time>
      </trkpt>
      <trkpt lat="44.97338" lon="4.53353">
        <ele>528</ele>
        <time>2015-11-10T14:28:43Z</time>
      </trkpt>
      <trkpt lat="44.97346" lon="4.53351">
        <ele>529</ele>
        <time>2015-11-10T14:28:48Z</time>
      </trkpt>
      <trkpt lat="44.97352" lon="4.53347">
        <ele>530</ele>
        <time>2015-11-10T14:28:52Z</time>
      </trkpt>
      <trkpt lat="44.97359" lon="4.53342">
        <ele>530</ele>
        <time>2015-11-10T14:28:57Z</time>
      </trkpt>
      <trkpt lat="44.97365" lon="4.53338">
        <ele>531</ele>
        <time>2015-11-10T14:29:03Z</time>
      </trkpt>
      <trkpt lat="44.97371" lon="4.53329">
        <ele>531</ele>
        <time>2015-11-10T14:29:09Z</time>
      </trkpt>
      <trkpt lat="44.97376" lon="4.53321">
        <ele>531</ele>
        <time>2015-11-10T14:29:14Z</time>
      </trkpt>
      <trkpt lat="44.97377" lon="4.53308">
        <ele>532</ele>
        <time>2015-11-10T14:29:18Z</time>
      </trkpt>
      <trkpt lat="44.97378" lon="4.53298">
        <ele>532</ele>
        <time>2015-11-10T14:29:21Z</time>
      </trkpt>
      <trkpt lat="44.97378" lon="4.53284">
        <ele>533</ele>
        <time>2015-11-10T14:29:25Z</time>
      </trkpt>
      <trkpt lat="44.97378" lon="4.53274">
        <ele>534</ele>
        <time>2015-11-10T14:29:28Z</time>
      </trkpt>
      <trkpt lat="44.9738" lon="4.53256">
        <ele>536</ele>
        <time>2015-11-10T14:29:33Z</time>
      </trkpt>
      <trkpt lat="44.97383" lon="4.53239">
        <ele>537</ele>
        <time>2015-11-10T14:29:38Z</time>
      </trkpt>
      <trkpt lat="44.97387" lon="4.53223">
        <ele>538</ele>
        <time>2015-11-10T14:29:43Z</time>
      </trkpt>
      <trkpt lat="44.97392" lon="4.53211">
        <ele>539</ele>
        <time>2015-11-10T14:29:47Z</time>
      </trkpt>
      <trkpt lat="44.97397" lon="4.53205">
        <ele>538</ele>
        <time>2015-11-10T14:29:52Z</time>
      </trkpt>
      <trkpt lat="44.97405" lon="4.532">
        <ele>539</ele>
        <time>2015-11-10T14:29:59Z</time>
      </trkpt>
      <trkpt lat="44.97412" lon="4.53192">
        <ele>540</ele>
        <time>2015-11-10T14:30:05Z</time>
      </trkpt>
      <trkpt lat="44.97417" lon="4.53185">
        <ele>540</ele>
        <time>2015-11-10T14:30:11Z</time>
      </trkpt>
      <trkpt lat="44.97421" lon="4.53176">
        <ele>540</ele>
        <time>2015-11-10T14:30:17Z</time>
      </trkpt>
      <trkpt lat="44.97422" lon="4.53167">
        <ele>541</ele>
        <time>2015-11-10T14:30:21Z</time>
      </trkpt>
      <trkpt lat="44.97424" lon="4.53163">
        <ele>541</ele>
        <time>2015-11-10T14:30:23Z</time>
      </trkpt>
      <trkpt lat="44.97423" lon="4.53154">
        <ele>541</ele>
        <time>2015-11-10T14:30:28Z</time>
      </trkpt>
      <trkpt lat="44.97428" lon="4.53145">
        <ele>541</ele>
        <time>2015-11-10T14:30:45Z</time>
      </trkpt>
      <trkpt lat="44.97429" lon="4.53144">
        <ele>541</ele>
        <time>2015-11-10T14:30:46Z</time>
      </trkpt>
      <trkpt lat="44.97439" lon="4.53129">
        <ele>541</ele>
        <time>2015-11-10T14:30:56Z</time>
      </trkpt>
      <trkpt lat="44.9745" lon="4.53114">
        <ele>542</ele>
        <time>2015-11-10T14:31:01Z</time>
      </trkpt>
      <trkpt lat="44.97458" lon="4.53106">
        <ele>543</ele>
        <time>2015-11-10T14:31:05Z</time>
      </trkpt>
      <trkpt lat="44.97466" lon="4.53098">
        <ele>544</ele>
        <time>2015-11-10T14:31:09Z</time>
      </trkpt>
      <trkpt lat="44.97474" lon="4.53084">
        <ele>545</ele>
        <time>2015-11-10T14:31:14Z</time>
      </trkpt>
      <trkpt lat="44.9748" lon="4.53073">
        <ele>545</ele>
        <time>2015-11-10T14:31:18Z</time>
      </trkpt>
      <trkpt lat="44.97484" lon="4.53067">
        <ele>546</ele>
        <time>2015-11-10T14:31:22Z</time>
      </trkpt>
      <trkpt lat="44.97488" lon="4.53056">
        <ele>546</ele>
        <time>2015-11-10T14:31:28Z</time>
      </trkpt>
      <trkpt lat="44.97491" lon="4.53049">
        <ele>545</ele>
        <time>2015-11-10T14:31:32Z</time>
      </trkpt>
      <trkpt lat="44.97493" lon="4.53039">
        <ele>546</ele>
        <time>2015-11-10T14:31:36Z</time>
      </trkpt>
      <trkpt lat="44.97498" lon="4.53028">
        <ele>546</ele>
        <time>2015-11-10T14:31:42Z</time>
      </trkpt>
      <trkpt lat="44.97502" lon="4.53018">
        <ele>546</ele>
        <time>2015-11-10T14:31:50Z</time>
      </trkpt>
      <trkpt lat="44.97507" lon="4.53011">
        <ele>547</ele>
        <time>2015-11-10T14:31:54Z</time>
      </trkpt>
      <trkpt lat="44.97514" lon="4.53006">
        <ele>548</ele>
        <time>2015-11-10T14:31:58Z</time>
      </trkpt>
      <trkpt lat="44.97519" lon="4.53001">
        <ele>549</ele>
        <time>2015-11-10T14:32:02Z</time>
      </trkpt>
      <trkpt lat="44.97525" lon="4.52998">
        <ele>549</ele>
        <time>2015-11-10T14:32:06Z</time>
      </trkpt>
      <trkpt lat="44.97533" lon="4.52996">
        <ele>550</ele>
        <time>2015-11-10T14:32:12Z</time>
      </trkpt>
      <trkpt lat="44.97541" lon="4.52993">
        <ele>551</ele>
        <time>2015-11-10T14:32:18Z</time>
      </trkpt>
      <trkpt lat="44.97548" lon="4.5299">
        <ele>551</ele>
        <time>2015-11-10T14:32:23Z</time>
      </trkpt>
      <trkpt lat="44.97557" lon="4.52987">
        <ele>552</ele>
        <time>2015-11-10T14:32:28Z</time>
      </trkpt>
      <trkpt lat="44.97565" lon="4.52984">
        <ele>552</ele>
        <time>2015-11-10T14:32:35Z</time>
      </trkpt>
      <trkpt lat="44.97568" lon="4.52982">
        <ele>552</ele>
        <time>2015-11-10T14:32:45Z</time>
      </trkpt>
      <trkpt lat="44.9758" lon="4.52974">
        <ele>552</ele>
        <time>2015-11-10T14:32:47Z</time>
      </trkpt>
      <trkpt lat="44.97582" lon="4.52973">
        <ele>552</ele>
        <time>2015-11-10T14:32:52Z</time>
      </trkpt>
      <trkpt lat="44.97592" lon="4.52961">
        <ele>554</ele>
        <time>2015-11-10T14:32:55Z</time>
      </trkpt>
      <trkpt lat="44.976" lon="4.52963">
        <ele>556</ele>
        <time>2015-11-10T14:33:01Z</time>
      </trkpt>
      <trkpt lat="44.97608" lon="4.52958">
        <ele>556</ele>
        <time>2015-11-10T14:33:08Z</time>
      </trkpt>
      <trkpt lat="44.97615" lon="4.52955">
        <ele>556</ele>
        <time>2015-11-10T14:33:14Z</time>
      </trkpt>
      <trkpt lat="44.97623" lon="4.52951">
        <ele>557</ele>
        <time>2015-11-10T14:33:24Z</time>
      </trkpt>
      <trkpt lat="44.97631" lon="4.52944">
        <ele>558</ele>
        <time>2015-11-10T14:33:28Z</time>
      </trkpt>
      <trkpt lat="44.97642" lon="4.52941">
        <ele>559</ele>
        <time>2015-11-10T14:33:33Z</time>
      </trkpt>
      <trkpt lat="44.97647" lon="4.5294">
        <ele>560</ele>
        <time>2015-11-10T14:33:36Z</time>
      </trkpt>
      <trkpt lat="44.97655" lon="4.52944">
        <ele>562</ele>
        <time>2015-11-10T14:33:40Z</time>
      </trkpt>
      <trkpt lat="44.97662" lon="4.52949">
        <ele>564</ele>
        <time>2015-11-10T14:33:44Z</time>
      </trkpt>
      <trkpt lat="44.97667" lon="4.52959">
        <ele>565</ele>
        <time>2015-11-10T14:33:49Z</time>
      </trkpt>
      <trkpt lat="44.97673" lon="4.52965">
        <ele>568</ele>
        <time>2015-11-10T14:33:54Z</time>
      </trkpt>
      <trkpt lat="44.97679" lon="4.52969">
        <ele>568</ele>
        <time>2015-11-10T14:33:58Z</time>
      </trkpt>
      <trkpt lat="44.97688" lon="4.52972">
        <ele>568</ele>
        <time>2015-11-10T14:34:05Z</time>
      </trkpt>
      <trkpt lat="44.97691" lon="4.52974">
        <ele>568</ele>
        <time>2015-11-10T14:34:07Z</time>
      </trkpt>
      <trkpt lat="44.97698" lon="4.52977">
        <ele>570</ele>
        <time>2015-11-10T14:34:12Z</time>
      </trkpt>
      <trkpt lat="44.97703" lon="4.52979">
        <ele>570</ele>
        <time>2015-11-10T14:34:16Z</time>
      </trkpt>
      <trkpt lat="44.97707" lon="4.5298">
        <ele>570</ele>
        <time>2015-11-10T14:34:18Z</time>
      </trkpt>
      <trkpt lat="44.97714" lon="4.52984">
        <ele>572</ele>
        <time>2015-11-10T14:34:22Z</time>
      </trkpt>
      <trkpt lat="44.97722" lon="4.52987">
        <ele>573</ele>
        <time>2015-11-10T14:34:30Z</time>
      </trkpt>
      <trkpt lat="44.9773" lon="4.52986">
        <ele>572</ele>
        <time>2015-11-10T14:34:32Z</time>
      </trkpt>
      <trkpt lat="44.97738" lon="4.52985">
        <ele>573</ele>
        <time>2015-11-10T14:34:39Z</time>
      </trkpt>
      <trkpt lat="44.97748" lon="4.52984">
        <ele>573</ele>
        <time>2015-11-10T14:34:44Z</time>
      </trkpt>
      <trkpt lat="44.97758" lon="4.52981">
        <ele>575</ele>
        <time>2015-11-10T14:34:48Z</time>
      </trkpt>
      <trkpt lat="44.97769" lon="4.52977">
        <ele>576</ele>
        <time>2015-11-10T14:34:53Z</time>
      </trkpt>
      <trkpt lat="44.97777" lon="4.52973">
        <ele>577</ele>
        <time>2015-11-10T14:34:57Z</time>
      </trkpt>
      <trkpt lat="44.97786" lon="4.52967">
        <ele>578</ele>
        <time>2015-11-10T14:35:01Z</time>
      </trkpt>
      <trkpt lat="44.97797" lon="4.52961">
        <ele>579</ele>
        <time>2015-11-10T14:35:06Z</time>
      </trkpt>
      <trkpt lat="44.97807" lon="4.52958">
        <ele>581</ele>
        <time>2015-11-10T14:35:10Z</time>
      </trkpt>
      <trkpt lat="44.97816" lon="4.52956">
        <ele>581</ele>
        <time>2015-11-10T14:35:14Z</time>
      </trkpt>
      <trkpt lat="44.97826" lon="4.52953">
        <ele>583</ele>
        <time>2015-11-10T14:35:18Z</time>
      </trkpt>
      <trkpt lat="44.97836" lon="4.52947">
        <ele>584</ele>
        <time>2015-11-10T14:35:23Z</time>
      </trkpt>
      <trkpt lat="44.97843" lon="4.52942">
        <ele>584</ele>
        <time>2015-11-10T14:35:26Z</time>
      </trkpt>
      <trkpt lat="44.97851" lon="4.52935">
        <ele>585</ele>
        <time>2015-11-10T14:35:30Z</time>
      </trkpt>
      <trkpt lat="44.97858" lon="4.52928">
        <ele>585</ele>
        <time>2015-11-10T14:35:34Z</time>
      </trkpt>
      <trkpt lat="44.97865" lon="4.52917">
        <ele>584</ele>
        <time>2015-11-10T14:35:38Z</time>
      </trkpt>
      <trkpt lat="44.97869" lon="4.5291">
        <ele>583</ele>
        <time>2015-11-10T14:35:41Z</time>
      </trkpt>
      <trkpt lat="44.97876" lon="4.52901">
        <ele>582</ele>
        <time>2015-11-10T14:35:45Z</time>
      </trkpt>
      <trkpt lat="44.97882" lon="4.52896">
        <ele>581</ele>
        <time>2015-11-10T14:35:48Z</time>
      </trkpt>
      <trkpt lat="44.97889" lon="4.52888">
        <ele>581</ele>
        <time>2015-11-10T14:35:52Z</time>
      </trkpt>
      <trkpt lat="44.97898" lon="4.52878">
        <ele>581</ele>
        <time>2015-11-10T14:35:57Z</time>
      </trkpt>
      <trkpt lat="44.97904" lon="4.52864">
        <ele>579</ele>
        <time>2015-11-10T14:36:02Z</time>
      </trkpt>
      <trkpt lat="44.97906" lon="4.52851">
        <ele>577</ele>
        <time>2015-11-10T14:36:06Z</time>
      </trkpt>
      <trkpt lat="44.97905" lon="4.52838">
        <ele>575</ele>
        <time>2015-11-10T14:36:10Z</time>
      </trkpt>
      <trkpt lat="44.97903" lon="4.5282">
        <ele>573</ele>
        <time>2015-11-10T14:36:15Z</time>
      </trkpt>
      <trkpt lat="44.97902" lon="4.52809">
        <ele>571</ele>
        <time>2015-11-10T14:36:18Z</time>
      </trkpt>
      <trkpt lat="44.97899" lon="4.52795">
        <ele>571</ele>
        <time>2015-11-10T14:36:22Z</time>
      </trkpt>
      <trkpt lat="44.97898" lon="4.52792">
        <ele>571</ele>
        <time>2015-11-10T14:36:23Z</time>
      </trkpt>
      <trkpt lat="44.97893" lon="4.52778">
        <ele>571</ele>
        <time>2015-11-10T14:36:28Z</time>
      </trkpt>
      <trkpt lat="44.97883" lon="4.52743">
        <ele>570</ele>
        <time>2015-11-10T14:36:40Z</time>
      </trkpt>
      <trkpt lat="44.97882" lon="4.52733">
        <ele>569</ele>
        <time>2015-11-10T14:36:50Z</time>
      </trkpt>
      <trkpt lat="44.97881" lon="4.52723">
        <ele>568</ele>
        <time>2015-11-10T14:36:56Z</time>
      </trkpt>
      <trkpt lat="44.9788" lon="4.52712">
        <ele>567</ele>
        <time>2015-11-10T14:37:00Z</time>
      </trkpt>
      <trkpt lat="44.97881" lon="4.52697">
        <ele>566</ele>
        <time>2015-11-10T14:37:04Z</time>
      </trkpt>
      <trkpt lat="44.97882" lon="4.52687">
        <ele>564</ele>
        <time>2015-11-10T14:37:07Z</time>
      </trkpt>
      <trkpt lat="44.97886" lon="4.52675">
        <ele>562</ele>
        <time>2015-11-10T14:37:12Z</time>
      </trkpt>
      <trkpt lat="44.9789" lon="4.52665">
        <ele>560</ele>
        <time>2015-11-10T14:37:16Z</time>
      </trkpt>
      <trkpt lat="44.97894" lon="4.52655">
        <ele>558</ele>
        <time>2015-11-10T14:37:20Z</time>
      </trkpt>
      <trkpt lat="44.97897" lon="4.52646">
        <ele>555</ele>
        <time>2015-11-10T14:37:24Z</time>
      </trkpt>
      <trkpt lat="44.97901" lon="4.52637">
        <ele>553</ele>
        <time>2015-11-10T14:37:28Z</time>
      </trkpt>
      <trkpt lat="44.97904" lon="4.52627">
        <ele>552</ele>
        <time>2015-11-10T14:37:32Z</time>
      </trkpt>
      <trkpt lat="44.97911" lon="4.52617">
        <ele>550</ele>
        <time>2015-11-10T14:37:36Z</time>
      </trkpt>
      <trkpt lat="44.97915" lon="4.52606">
        <ele>549</ele>
        <time>2015-11-10T14:37:41Z</time>
      </trkpt>
      <trkpt lat="44.97917" lon="4.52599">
        <ele>548</ele>
        <time>2015-11-10T14:37:44Z</time>
      </trkpt>
      <trkpt lat="44.9792" lon="4.52587">
        <ele>546</ele>
        <time>2015-11-10T14:37:50Z</time>
      </trkpt>
      <trkpt lat="44.97922" lon="4.5258">
        <ele>545</ele>
        <time>2015-11-10T14:37:53Z</time>
      </trkpt>
      <trkpt lat="44.97921" lon="4.52567">
        <ele>543</ele>
        <time>2015-11-10T14:37:58Z</time>
      </trkpt>
      <trkpt lat="44.97921" lon="4.52554">
        <ele>541</ele>
        <time>2015-11-10T14:38:04Z</time>
      </trkpt>
      <trkpt lat="44.97921" lon="4.52542">
        <ele>540</ele>
        <time>2015-11-10T14:38:10Z</time>
      </trkpt>
      <trkpt lat="44.97925" lon="4.52533">
        <ele>539</ele>
        <time>2015-11-10T14:38:16Z</time>
      </trkpt>
      <trkpt lat="44.97932" lon="4.52533">
        <ele>536</ele>
        <time>2015-11-10T14:38:25Z</time>
      </trkpt>
      <trkpt lat="44.9794" lon="4.5254">
        <ele>534</ele>
        <time>2015-11-10T14:38:32Z</time>
      </trkpt>
      <trkpt lat="44.97948" lon="4.52545">
        <ele>531</ele>
        <time>2015-11-10T14:38:41Z</time>
      </trkpt>
      <trkpt lat="44.97955" lon="4.52551">
        <ele>529</ele>
        <time>2015-11-10T14:38:48Z</time>
      </trkpt>
      <trkpt lat="44.97963" lon="4.52554">
        <ele>529</ele>
        <time>2015-11-10T14:38:54Z</time>
      </trkpt>
      <trkpt lat="44.97971" lon="4.52556">
        <ele>527</ele>
        <time>2015-11-10T14:39:02Z</time>
      </trkpt>
      <trkpt lat="44.97976" lon="4.52547">
        <ele>523</ele>
        <time>2015-11-10T14:39:12Z</time>
      </trkpt>
      <trkpt lat="44.97982" lon="4.52546">
        <ele>523</ele>
        <time>2015-11-10T14:39:16Z</time>
      </trkpt>
      <trkpt lat="44.9799" lon="4.52552">
        <ele>521</ele>
        <time>2015-11-10T14:39:22Z</time>
      </trkpt>
      <trkpt lat="44.97997" lon="4.52559">
        <ele>520</ele>
        <time>2015-11-10T14:39:30Z</time>
      </trkpt>
      <trkpt lat="44.98003" lon="4.52568">
        <ele>520</ele>
        <time>2015-11-10T14:39:34Z</time>
      </trkpt>
      <trkpt lat="44.98008" lon="4.52574">
        <ele>519</ele>
        <time>2015-11-10T14:39:37Z</time>
      </trkpt>
      <trkpt lat="44.98018" lon="4.52589">
        <ele>519</ele>
        <time>2015-11-10T14:39:42Z</time>
      </trkpt>
      <trkpt lat="44.98023" lon="4.526">
        <ele>520</ele>
        <time>2015-11-10T14:39:46Z</time>
      </trkpt>
      <trkpt lat="44.98029" lon="4.52606">
        <ele>521</ele>
        <time>2015-11-10T14:39:50Z</time>
      </trkpt>
      <trkpt lat="44.98034" lon="4.52609">
        <ele>521</ele>
        <time>2015-11-10T14:39:53Z</time>
      </trkpt>
      <trkpt lat="44.98043" lon="4.52612">
        <ele>522</ele>
        <time>2015-11-10T14:39:57Z</time>
      </trkpt>
      <trkpt lat="44.98049" lon="4.52611">
        <ele>523</ele>
        <time>2015-11-10T14:40:00Z</time>
      </trkpt>
      <trkpt lat="44.98066" lon="4.52606">
        <ele>525</ele>
        <time>2015-11-10T14:40:14Z</time>
      </trkpt>
      <trkpt lat="44.98074" lon="4.52606">
        <ele>524</ele>
        <time>2015-11-10T14:40:20Z</time>
      </trkpt>
      <trkpt lat="44.98083" lon="4.52607">
        <ele>524</ele>
        <time>2015-11-10T14:40:25Z</time>
      </trkpt>
      <trkpt lat="44.98089" lon="4.5261">
        <ele>526</ele>
        <time>2015-11-10T14:40:30Z</time>
      </trkpt>
      <trkpt lat="44.98098" lon="4.52608">
        <ele>527</ele>
        <time>2015-11-10T14:40:38Z</time>
      </trkpt>
      <trkpt lat="44.98106" lon="4.5261">
        <ele>527</ele>
        <time>2015-11-10T14:40:45Z</time>
      </trkpt>
      <trkpt lat="44.98114" lon="4.52613">
        <ele>528</ele>
        <time>2015-11-10T14:40:50Z</time>
      </trkpt>
      <trkpt lat="44.98125" lon="4.52612">
        <ele>527</ele>
        <time>2015-11-10T14:40:54Z</time>
      </trkpt>
      <trkpt lat="44.98133" lon="4.52609">
        <ele>527</ele>
        <time>2015-11-10T14:40:58Z</time>
      </trkpt>
      <trkpt lat="44.98143" lon="4.52607">
        <ele>528</ele>
        <time>2015-11-10T14:41:03Z</time>
      </trkpt>
      <trkpt lat="44.98151" lon="4.52604">
        <ele>528</ele>
        <time>2015-11-10T14:41:08Z</time>
      </trkpt>
      <trkpt lat="44.98159" lon="4.52601">
        <ele>528</ele>
        <time>2015-11-10T14:41:12Z</time>
      </trkpt>
      <trkpt lat="44.98166" lon="4.52605">
        <ele>529</ele>
        <time>2015-11-10T14:41:17Z</time>
      </trkpt>
      <trkpt lat="44.98174" lon="4.52603">
        <ele>530</ele>
        <time>2015-11-10T14:41:21Z</time>
      </trkpt>
      <trkpt lat="44.98186" lon="4.52599">
        <ele>529</ele>
        <time>2015-11-10T14:41:26Z</time>
      </trkpt>
      <trkpt lat="44.98196" lon="4.52592">
        <ele>529</ele>
        <time>2015-11-10T14:41:31Z</time>
      </trkpt>
      <trkpt lat="44.98201" lon="4.5259">
        <ele>528</ele>
        <time>2015-11-10T14:41:34Z</time>
      </trkpt>
      <trkpt lat="44.98207" lon="4.52584">
        <ele>527</ele>
        <time>2015-11-10T14:41:38Z</time>
      </trkpt>
      <trkpt lat="44.98215" lon="4.52576">
        <ele>527</ele>
        <time>2015-11-10T14:41:42Z</time>
      </trkpt>
      <trkpt lat="44.98223" lon="4.52565">
        <ele>527</ele>
        <time>2015-11-10T14:41:46Z</time>
      </trkpt>
      <trkpt lat="44.98231" lon="4.52559">
        <ele>526</ele>
        <time>2015-11-10T14:41:49Z</time>
      </trkpt>
      <trkpt lat="44.98239" lon="4.52547">
        <ele>525</ele>
        <time>2015-11-10T14:41:55Z</time>
      </trkpt>
      <trkpt lat="44.98245" lon="4.52536">
        <ele>524</ele>
        <time>2015-11-10T14:41:58Z</time>
      </trkpt>
      <trkpt lat="44.98248" lon="4.52532">
        <ele>524</ele>
        <time>2015-11-10T14:42:00Z</time>
      </trkpt>
      <trkpt lat="44.98254" lon="4.52519">
        <ele>523</ele>
        <time>2015-11-10T14:42:05Z</time>
      </trkpt>
      <trkpt lat="44.9826" lon="4.52493">
        <ele>522</ele>
        <time>2015-11-10T14:42:14Z</time>
      </trkpt>
      <trkpt lat="44.98262" lon="4.5248">
        <ele>521</ele>
        <time>2015-11-10T14:42:18Z</time>
      </trkpt>
      <trkpt lat="44.98263" lon="4.52463">
        <ele>522</ele>
        <time>2015-11-10T14:42:23Z</time>
      </trkpt>
      <trkpt lat="44.98267" lon="4.52449">
        <ele>522</ele>
        <time>2015-11-10T14:42:28Z</time>
      </trkpt>
      <trkpt lat="44.98272" lon="4.5244">
        <ele>522</ele>
        <time>2015-11-10T14:42:32Z</time>
      </trkpt>
      <trkpt lat="44.98276" lon="4.52433">
        <ele>523</ele>
        <time>2015-11-10T14:42:35Z</time>
      </trkpt>
      <trkpt lat="44.98283" lon="4.52425">
        <ele>524</ele>
        <time>2015-11-10T14:42:40Z</time>
      </trkpt>
      <trkpt lat="44.9829" lon="4.52418">
        <ele>525</ele>
        <time>2015-11-10T14:42:47Z</time>
      </trkpt>
      <trkpt lat="44.98295" lon="4.5241">
        <ele>526</ele>
        <time>2015-11-10T14:42:52Z</time>
      </trkpt>
      <trkpt lat="44.98298" lon="4.52404">
        <ele>526</ele>
        <time>2015-11-10T14:42:56Z</time>
      </trkpt>
      <trkpt lat="44.98304" lon="4.52398">
        <ele>526</ele>
        <time>2015-11-10T14:43:00Z</time>
      </trkpt>
      <trkpt lat="44.9831" lon="4.52392">
        <ele>528</ele>
        <time>2015-11-10T14:43:05Z</time>
      </trkpt>
      <trkpt lat="44.98315" lon="4.52386">
        <ele>528</ele>
        <time>2015-11-10T14:43:08Z</time>
      </trkpt>
      <trkpt lat="44.9832" lon="4.52379">
        <ele>529</ele>
        <time>2015-11-10T14:43:12Z</time>
      </trkpt>
      <trkpt lat="44.98327" lon="4.52369">
        <ele>530</ele>
        <time>2015-11-10T14:43:17Z</time>
      </trkpt>
      <trkpt lat="44.98331" lon="4.52361">
        <ele>530</ele>
        <time>2015-11-10T14:43:20Z</time>
      </trkpt>
      <trkpt lat="44.98335" lon="4.52349">
        <ele>530</ele>
        <time>2015-11-10T14:43:25Z</time>
      </trkpt>
      <trkpt lat="44.98337" lon="4.52345">
        <ele>530</ele>
        <time>2015-11-10T14:43:28Z</time>
      </trkpt>
      <trkpt lat="44.98342" lon="4.52334">
        <ele>531</ele>
        <time>2015-11-10T14:43:33Z</time>
      </trkpt>
      <trkpt lat="44.98345" lon="4.5233">
        <ele>531</ele>
        <time>2015-11-10T14:43:34Z</time>
      </trkpt>
      <trkpt lat="44.98357" lon="4.5231">
        <ele>530</ele>
        <time>2015-11-10T14:43:42Z</time>
      </trkpt>
      <trkpt lat="44.98361" lon="4.52301">
        <ele>528</ele>
        <time>2015-11-10T14:43:46Z</time>
      </trkpt>
      <trkpt lat="44.98365" lon="4.52298">
        <ele>529</ele>
        <time>2015-11-10T14:43:50Z</time>
      </trkpt>
      <trkpt lat="44.98371" lon="4.52283">
        <ele>529</ele>
        <time>2015-11-10T14:44:00Z</time>
      </trkpt>
      <trkpt lat="44.98376" lon="4.52277">
        <ele>529</ele>
        <time>2015-11-10T14:44:12Z</time>
      </trkpt>
      <trkpt lat="44.98391" lon="4.52267">
        <ele>529</ele>
        <time>2015-11-10T14:44:16Z</time>
      </trkpt>
      <trkpt lat="44.984" lon="4.52266">
        <ele>529</ele>
        <time>2015-11-10T14:44:20Z</time>
      </trkpt>
      <trkpt lat="44.98407" lon="4.52263">
        <ele>530</ele>
        <time>2015-11-10T14:44:24Z</time>
      </trkpt>
      <trkpt lat="44.98414" lon="4.5226">
        <ele>530</ele>
        <time>2015-11-10T14:44:29Z</time>
      </trkpt>
      <trkpt lat="44.98419" lon="4.52257">
        <ele>530</ele>
        <time>2015-11-10T14:44:33Z</time>
      </trkpt>
      <trkpt lat="44.98427" lon="4.52251">
        <ele>530</ele>
        <time>2015-11-10T14:44:38Z</time>
      </trkpt>
      <trkpt lat="44.98432" lon="4.52247">
        <ele>529</ele>
        <time>2015-11-10T14:44:42Z</time>
      </trkpt>
      <trkpt lat="44.98438" lon="4.52241">
        <ele>528</ele>
        <time>2015-11-10T14:44:47Z</time>
      </trkpt>
      <trkpt lat="44.98444" lon="4.52245">
        <ele>526</ele>
        <time>2015-11-10T14:45:03Z</time>
      </trkpt>
      <trkpt lat="44.98447" lon="4.52253">
        <ele>525</ele>
        <time>2015-11-10T14:45:06Z</time>
      </trkpt>
      <trkpt lat="44.98453" lon="4.5226">
        <ele>524</ele>
        <time>2015-11-10T14:45:14Z</time>
      </trkpt>
      <trkpt lat="44.98462" lon="4.52253">
        <ele>526</ele>
        <time>2015-11-10T14:45:20Z</time>
      </trkpt>
      <trkpt lat="44.98462" lon="4.52229">
        <ele>528</ele>
        <time>2015-11-10T14:45:24Z</time>
      </trkpt>
      <trkpt lat="44.9847" lon="4.52228">
        <ele>525</ele>
        <time>2015-11-10T14:45:34Z</time>
      </trkpt>
      <trkpt lat="44.98477" lon="4.52229">
        <ele>524</ele>
        <time>2015-11-10T14:45:38Z</time>
      </trkpt>
      <trkpt lat="44.98483" lon="4.52231">
        <ele>523</ele>
        <time>2015-11-10T14:45:42Z</time>
      </trkpt>
      <trkpt lat="44.98491" lon="4.52234">
        <ele>522</ele>
        <time>2015-11-10T14:45:46Z</time>
      </trkpt>
      <trkpt lat="44.98499" lon="4.52235">
        <ele>519</ele>
        <time>2015-11-10T14:45:53Z</time>
      </trkpt>
      <trkpt lat="44.98507" lon="4.52231">
        <ele>516</ele>
        <time>2015-11-10T14:46:03Z</time>
      </trkpt>
      <trkpt lat="44.98513" lon="4.52224">
        <ele>515</ele>
        <time>2015-11-10T14:46:10Z</time>
      </trkpt>
      <trkpt lat="44.98519" lon="4.5222">
        <ele>514</ele>
        <time>2015-11-10T14:46:14Z</time>
      </trkpt>
      <trkpt lat="44.98525" lon="4.52216">
        <ele>514</ele>
        <time>2015-11-10T14:46:18Z</time>
      </trkpt>
      <trkpt lat="44.98531" lon="4.52208">
        <ele>513</ele>
        <time>2015-11-10T14:46:26Z</time>
      </trkpt>
      <trkpt lat="44.98539" lon="4.52203">
        <ele>512</ele>
        <time>2015-11-10T14:46:33Z</time>
      </trkpt>
      <trkpt lat="44.98546" lon="4.52196">
        <ele>511</ele>
        <time>2015-11-10T14:46:41Z</time>
      </trkpt>
      <trkpt lat="44.98551" lon="4.52195">
        <ele>510</ele>
        <time>2015-11-10T14:46:45Z</time>
      </trkpt>
      <trkpt lat="44.98562" lon="4.5219">
        <ele>510</ele>
        <time>2015-11-10T14:46:50Z</time>
      </trkpt>
      <trkpt lat="44.9857" lon="4.52185">
        <ele>509</ele>
        <time>2015-11-10T14:46:54Z</time>
      </trkpt>
      <trkpt lat="44.98578" lon="4.5218">
        <ele>509</ele>
        <time>2015-11-10T14:46:58Z</time>
      </trkpt>
      <trkpt lat="44.98586" lon="4.52175">
        <ele>506</ele>
        <time>2015-11-10T14:47:07Z</time>
      </trkpt>
      <trkpt lat="44.98593" lon="4.52178">
        <ele>502</ele>
        <time>2015-11-10T14:47:18Z</time>
      </trkpt>
      <trkpt lat="44.986" lon="4.52181">
        <ele>499</ele>
        <time>2015-11-10T14:47:33Z</time>
      </trkpt>
      <trkpt lat="44.98605" lon="4.52183">
        <ele>499</ele>
        <time>2015-11-10T14:47:36Z</time>
      </trkpt>
      <trkpt lat="44.98611" lon="4.52186">
        <ele>498</ele>
        <time>2015-11-10T14:47:40Z</time>
      </trkpt>
      <trkpt lat="44.98619" lon="4.52186">
        <ele>498</ele>
        <time>2015-11-10T14:47:46Z</time>
      </trkpt>
      <trkpt lat="44.98623" lon="4.52188">
        <ele>498</ele>
        <time>2015-11-10T14:47:53Z</time>
      </trkpt>
      <trkpt lat="44.98633" lon="4.52192">
        <ele>496</ele>
        <time>2015-11-10T14:47:58Z</time>
      </trkpt>
      <trkpt lat="44.98639" lon="4.52194">
        <ele>495</ele>
        <time>2015-11-10T14:48:01Z</time>
      </trkpt>
      <trkpt lat="44.98647" lon="4.52198">
        <ele>494</ele>
        <time>2015-11-10T14:48:06Z</time>
      </trkpt>
      <trkpt lat="44.98661" lon="4.52196">
        <ele>492</ele>
        <time>2015-11-10T14:48:14Z</time>
      </trkpt>
      <trkpt lat="44.98669" lon="4.52195">
        <ele>490</ele>
        <time>2015-11-10T14:48:19Z</time>
      </trkpt>
      <trkpt lat="44.98676" lon="4.52193">
        <ele>489</ele>
        <time>2015-11-10T14:48:24Z</time>
      </trkpt>
      <trkpt lat="44.98685" lon="4.52192">
        <ele>487</ele>
        <time>2015-11-10T14:48:28Z</time>
      </trkpt>
      <trkpt lat="44.98694" lon="4.5219">
        <ele>485</ele>
        <time>2015-11-10T14:48:34Z</time>
      </trkpt>
      <trkpt lat="44.98702" lon="4.52188">
        <ele>484</ele>
        <time>2015-11-10T14:48:40Z</time>
      </trkpt>
      <trkpt lat="44.9871" lon="4.52187">
        <ele>483</ele>
        <time>2015-11-10T14:48:46Z</time>
      </trkpt>
      <trkpt lat="44.98717" lon="4.52189">
        <ele>483</ele>
        <time>2015-11-10T14:48:50Z</time>
      </trkpt>
      <trkpt lat="44.98724" lon="4.52188">
        <ele>485</ele>
        <time>2015-11-10T14:48:54Z</time>
      </trkpt>
      <trkpt lat="44.98732" lon="4.52189">
        <ele>485</ele>
        <time>2015-11-10T14:49:00Z</time>
      </trkpt>
      <trkpt lat="44.9874" lon="4.52192">
        <ele>484</ele>
        <time>2015-11-10T14:49:07Z</time>
      </trkpt>
      <trkpt lat="44.98745" lon="4.52193">
        <ele>483</ele>
        <time>2015-11-10T14:49:10Z</time>
      </trkpt>
      <trkpt lat="44.98752" lon="4.52192">
        <ele>483</ele>
        <time>2015-11-10T14:49:14Z</time>
      </trkpt>
      <trkpt lat="44.98759" lon="4.52194">
        <ele>485</ele>
        <time>2015-11-10T14:49:18Z</time>
      </trkpt>
      <trkpt lat="44.98766" lon="4.52191">
        <ele>485</ele>
        <time>2015-11-10T14:49:23Z</time>
      </trkpt>
      <trkpt lat="44.98774" lon="4.52185">
        <ele>486</ele>
        <time>2015-11-10T14:49:28Z</time>
      </trkpt>
      <trkpt lat="44.98779" lon="4.52194">
        <ele>480</ele>
        <time>2015-11-10T14:49:39Z</time>
      </trkpt>
      <trkpt lat="44.98787" lon="4.52197">
        <ele>478</ele>
        <time>2015-11-10T14:49:43Z</time>
      </trkpt>
      <trkpt lat="44.98798" lon="4.52199">
        <ele>475</ele>
        <time>2015-11-10T14:49:48Z</time>
      </trkpt>
      <trkpt lat="44.98805" lon="4.52206">
        <ele>473</ele>
        <time>2015-11-10T14:49:53Z</time>
      </trkpt>
      <trkpt lat="44.98812" lon="4.52215">
        <ele>471</ele>
        <time>2015-11-10T14:49:59Z</time>
      </trkpt>
      <trkpt lat="44.9882" lon="4.52221">
        <ele>470</ele>
        <time>2015-11-10T14:50:12Z</time>
      </trkpt>
      <trkpt lat="44.98827" lon="4.52221">
        <ele>469</ele>
        <time>2015-11-10T14:50:16Z</time>
      </trkpt>
      <trkpt lat="44.98837" lon="4.52219">
        <ele>468</ele>
        <time>2015-11-10T14:50:21Z</time>
      </trkpt>
      <trkpt lat="44.98839" lon="4.52217">
        <ele>468</ele>
        <time>2015-11-10T14:50:34Z</time>
      </trkpt>
      <trkpt lat="44.98865" lon="4.52213">
        <ele>462</ele>
        <time>2015-11-10T14:50:36Z</time>
      </trkpt>
      <trkpt lat="44.98876" lon="4.52208">
        <ele>460</ele>
        <time>2015-11-10T14:50:49Z</time>
      </trkpt>
      <trkpt lat="44.98896" lon="4.52197">
        <ele>454</ele>
        <time>2015-11-10T14:50:54Z</time>
      </trkpt>
      <trkpt lat="44.98906" lon="4.52191">
        <ele>455</ele>
        <time>2015-11-10T14:50:59Z</time>
      </trkpt>
      <trkpt lat="44.9891" lon="4.5219">
        <ele>454</ele>
        <time>2015-11-10T14:51:04Z</time>
      </trkpt>
      <trkpt lat="44.9892" lon="4.52182">
        <ele>453</ele>
        <time>2015-11-10T14:51:08Z</time>
      </trkpt>
      <trkpt lat="44.98928" lon="4.52174">
        <ele>452</ele>
        <time>2015-11-10T14:51:13Z</time>
      </trkpt>
      <trkpt lat="44.98934" lon="4.52167">
        <ele>451</ele>
        <time>2015-11-10T14:51:16Z</time>
      </trkpt>
      <trkpt lat="44.98941" lon="4.5216">
        <ele>450</ele>
        <time>2015-11-10T14:51:20Z</time>
      </trkpt>
      <trkpt lat="44.98949" lon="4.52153">
        <ele>450</ele>
        <time>2015-11-10T14:51:24Z</time>
      </trkpt>
      <trkpt lat="44.98956" lon="4.52147">
        <ele>449</ele>
        <time>2015-11-10T14:51:28Z</time>
      </trkpt>
      <trkpt lat="44.98965" lon="4.52142">
        <ele>449</ele>
        <time>2015-11-10T14:51:32Z</time>
      </trkpt>
      <trkpt lat="44.98972" lon="4.52136">
        <ele>446</ele>
        <time>2015-11-10T14:51:36Z</time>
      </trkpt>
      <trkpt lat="44.98981" lon="4.52132">
        <ele>446</ele>
        <time>2015-11-10T14:51:40Z</time>
      </trkpt>
      <trkpt lat="44.98988" lon="4.52133">
        <ele>444</ele>
        <time>2015-11-10T14:51:44Z</time>
      </trkpt>
      <trkpt lat="44.98996" lon="4.52129">
        <ele>442</ele>
        <time>2015-11-10T14:51:48Z</time>
      </trkpt>
      <trkpt lat="44.99005" lon="4.52125">
        <ele>441</ele>
        <time>2015-11-10T14:51:53Z</time>
      </trkpt>
      <trkpt lat="44.99011" lon="4.52121">
        <ele>439</ele>
        <time>2015-11-10T14:51:57Z</time>
      </trkpt>
      <trkpt lat="44.99016" lon="4.52113">
        <ele>438</ele>
        <time>2015-11-10T14:52:02Z</time>
      </trkpt>
      <trkpt lat="44.99021" lon="4.52108">
        <ele>437</ele>
        <time>2015-11-10T14:52:06Z</time>
      </trkpt>
      <trkpt lat="44.99028" lon="4.52101">
        <ele>436</ele>
        <time>2015-11-10T14:52:11Z</time>
      </trkpt>
      <trkpt lat="44.99035" lon="4.52094">
        <ele>434</ele>
        <time>2015-11-10T14:52:18Z</time>
      </trkpt>
      <trkpt lat="44.99041" lon="4.52088">
        <ele>432</ele>
        <time>2015-11-10T14:52:24Z</time>
      </trkpt>
      <trkpt lat="44.99047" lon="4.5208">
        <ele>431</ele>
        <time>2015-11-10T14:52:30Z</time>
      </trkpt>
      <trkpt lat="44.99052" lon="4.52071">
        <ele>429</ele>
        <time>2015-11-10T14:52:36Z</time>
      </trkpt>
      <trkpt lat="44.99057" lon="4.52064">
        <ele>429</ele>
        <time>2015-11-10T14:52:40Z</time>
      </trkpt>
      <trkpt lat="44.99064" lon="4.5206">
        <ele>427</ele>
        <time>2015-11-10T14:52:44Z</time>
      </trkpt>
      <trkpt lat="44.99072" lon="4.52055">
        <ele>426</ele>
        <time>2015-11-10T14:52:48Z</time>
      </trkpt>
      <trkpt lat="44.99077" lon="4.5205">
        <ele>426</ele>
        <time>2015-11-10T14:52:51Z</time>
      </trkpt>
      <trkpt lat="44.99082" lon="4.52043">
        <ele>425</ele>
        <time>2015-11-10T14:52:54Z</time>
      </trkpt>
      <trkpt lat="44.99089" lon="4.52035">
        <ele>424</ele>
        <time>2015-11-10T14:52:58Z</time>
      </trkpt>
      <trkpt lat="44.99098" lon="4.52025">
        <ele>423</ele>
        <time>2015-11-10T14:53:03Z</time>
      </trkpt>
      <trkpt lat="44.99104" lon="4.52018">
        <ele>423</ele>
        <time>2015-11-10T14:53:06Z</time>
      </trkpt>
      <trkpt lat="44.99112" lon="4.5201">
        <ele>422</ele>
        <time>2015-11-10T14:53:10Z</time>
      </trkpt>
      <trkpt lat="44.99119" lon="4.52003">
        <ele>422</ele>
        <time>2015-11-10T14:53:14Z</time>
      </trkpt>
      <trkpt lat="44.99126" lon="4.51994">
        <ele>422</ele>
        <time>2015-11-10T14:53:18Z</time>
      </trkpt>
      <trkpt lat="44.99133" lon="4.51986">
        <ele>419</ele>
        <time>2015-11-10T14:53:22Z</time>
      </trkpt>
      <trkpt lat="44.99139" lon="4.51977">
        <ele>418</ele>
        <time>2015-11-10T14:53:26Z</time>
      </trkpt>
      <trkpt lat="44.99145" lon="4.51969">
        <ele>415</ele>
        <time>2015-11-10T14:53:30Z</time>
      </trkpt>
      <trkpt lat="44.99151" lon="4.5196">
        <ele>414</ele>
        <time>2015-11-10T14:53:34Z</time>
      </trkpt>
      <trkpt lat="44.99158" lon="4.51951">
        <ele>411</ele>
        <time>2015-11-10T14:53:39Z</time>
      </trkpt>
      <trkpt lat="44.99162" lon="4.51944">
        <ele>411</ele>
        <time>2015-11-10T14:53:42Z</time>
      </trkpt>
      <trkpt lat="44.99168" lon="4.51934">
        <ele>409</ele>
        <time>2015-11-10T14:53:46Z</time>
      </trkpt>
      <trkpt lat="44.99174" lon="4.51925">
        <ele>409</ele>
        <time>2015-11-10T14:53:50Z</time>
      </trkpt>
      <trkpt lat="44.99182" lon="4.51916">
        <ele>406</ele>
        <time>2015-11-10T14:53:54Z</time>
      </trkpt>
      <trkpt lat="44.99189" lon="4.51908">
        <ele>406</ele>
        <time>2015-11-10T14:53:58Z</time>
      </trkpt>
      <trkpt lat="44.99196" lon="4.51895">
        <ele>406</ele>
        <time>2015-11-10T14:54:03Z</time>
      </trkpt>
      <trkpt lat="44.99203" lon="4.51885">
        <ele>404</ele>
        <time>2015-11-10T14:54:08Z</time>
      </trkpt>
      <trkpt lat="44.9921" lon="4.51877">
        <ele>402</ele>
        <time>2015-11-10T14:54:12Z</time>
      </trkpt>
      <trkpt lat="44.99216" lon="4.51869">
        <ele>401</ele>
        <time>2015-11-10T14:54:16Z</time>
      </trkpt>
      <trkpt lat="44.99228" lon="4.51872">
        <ele>399</ele>
        <time>2015-11-10T14:54:21Z</time>
      </trkpt>
      <trkpt lat="44.99235" lon="4.51877">
        <ele>399</ele>
        <time>2015-11-10T14:54:25Z</time>
      </trkpt>
      <trkpt lat="44.99246" lon="4.51888">
        <ele>399</ele>
        <time>2015-11-10T14:54:30Z</time>
      </trkpt>
      <trkpt lat="44.99255" lon="4.51895">
        <ele>397</ele>
        <time>2015-11-10T14:54:34Z</time>
      </trkpt>
      <trkpt lat="44.99262" lon="4.51905">
        <ele>396</ele>
        <time>2015-11-10T14:54:38Z</time>
      </trkpt>
      <trkpt lat="44.9927" lon="4.51912">
        <ele>395</ele>
        <time>2015-11-10T14:54:42Z</time>
      </trkpt>
      <trkpt lat="44.99277" lon="4.51918">
        <ele>394</ele>
        <time>2015-11-10T14:54:46Z</time>
      </trkpt>
      <trkpt lat="44.99284" lon="4.51921">
        <ele>394</ele>
        <time>2015-11-10T14:54:49Z</time>
      </trkpt>
      <trkpt lat="44.99292" lon="4.51925">
        <ele>395</ele>
        <time>2015-11-10T14:54:52Z</time>
      </trkpt>
      <trkpt lat="44.99299" lon="4.51931">
        <ele>396</ele>
        <time>2015-11-10T14:54:56Z</time>
      </trkpt>
      <trkpt lat="44.99306" lon="4.5194">
        <ele>398</ele>
        <time>2015-11-10T14:55:00Z</time>
      </trkpt>
      <trkpt lat="44.99316" lon="4.51939">
        <ele>399</ele>
        <time>2015-11-10T14:55:04Z</time>
      </trkpt>
      <trkpt lat="44.99318" lon="4.51929">
        <ele>399</ele>
        <time>2015-11-10T14:55:20Z</time>
      </trkpt>
      <trkpt lat="44.99316" lon="4.5192">
        <ele>399</ele>
        <time>2015-11-10T14:55:27Z</time>
      </trkpt>
      <trkpt lat="44.99316" lon="4.51907">
        <ele>398</ele>
        <time>2015-11-10T14:55:32Z</time>
      </trkpt>
      <trkpt lat="44.99318" lon="4.51895">
        <ele>398</ele>
        <time>2015-11-10T14:55:37Z</time>
      </trkpt>
      <trkpt lat="44.99316" lon="4.51885">
        <ele>397</ele>
        <time>2015-11-10T14:55:41Z</time>
      </trkpt>
      <trkpt lat="44.99316" lon="4.51873">
        <ele>397</ele>
        <time>2015-11-10T14:55:46Z</time>
      </trkpt>
      <trkpt lat="44.99317" lon="4.51862">
        <ele>397</ele>
        <time>2015-11-10T14:55:52Z</time>
      </trkpt>
      <trkpt lat="44.9932" lon="4.51851">
        <ele>396</ele>
        <time>2015-11-10T14:56:00Z</time>
      </trkpt>
      <trkpt lat="44.9932" lon="4.51842">
        <ele>396</ele>
        <time>2015-11-10T14:56:04Z</time>
      </trkpt>
      <trkpt lat="44.99319" lon="4.51834">
        <ele>395</ele>
        <time>2015-11-10T14:56:07Z</time>
      </trkpt>
      <trkpt lat="44.9932" lon="4.51813">
        <ele>394</ele>
        <time>2015-11-10T14:56:15Z</time>
      </trkpt>
      <trkpt lat="44.99318" lon="4.51799">
        <ele>395</ele>
        <time>2015-11-10T14:56:20Z</time>
      </trkpt>
      <trkpt lat="44.99316" lon="4.51787">
        <ele>396</ele>
        <time>2015-11-10T14:56:24Z</time>
      </trkpt>
      <trkpt lat="44.99317" lon="4.51775">
        <ele>397</ele>
        <time>2015-11-10T14:56:28Z</time>
      </trkpt>
      <trkpt lat="44.99317" lon="4.51763">
        <ele>399</ele>
        <time>2015-11-10T14:56:34Z</time>
      </trkpt>
      <trkpt lat="44.99319" lon="4.51751">
        <ele>400</ele>
        <time>2015-11-10T14:56:41Z</time>
      </trkpt>
      <trkpt lat="44.9932" lon="4.51739">
        <ele>402</ele>
        <time>2015-11-10T14:56:50Z</time>
      </trkpt>
      <trkpt lat="44.99322" lon="4.51728">
        <ele>405</ele>
        <time>2015-11-10T14:56:58Z</time>
      </trkpt>
      <trkpt lat="44.99325" lon="4.51716">
        <ele>407</ele>
        <time>2015-11-10T14:57:05Z</time>
      </trkpt>
      <trkpt lat="44.99326" lon="4.51704">
        <ele>409</ele>
        <time>2015-11-10T14:57:11Z</time>
      </trkpt>
      <trkpt lat="44.99328" lon="4.51694">
        <ele>410</ele>
        <time>2015-11-10T14:57:16Z</time>
      </trkpt>
      <trkpt lat="44.99332" lon="4.51687">
        <ele>411</ele>
        <time>2015-11-10T14:57:20Z</time>
      </trkpt>
      <trkpt lat="44.9934" lon="4.51683">
        <ele>413</ele>
        <time>2015-11-10T14:57:25Z</time>
      </trkpt>
      <trkpt lat="44.99348" lon="4.51682">
        <ele>414</ele>
        <time>2015-11-10T14:57:30Z</time>
      </trkpt>
      <trkpt lat="44.99355" lon="4.51682">
        <ele>414</ele>
        <time>2015-11-10T14:57:36Z</time>
      </trkpt>
      <trkpt lat="44.99355" lon="4.51682">
        <ele>414</ele>
        <time>2015-11-10T14:57:37Z</time>
      </trkpt>
    </trkseg>
  </trk>
</gpx>